<?xml version="1.0" encoding="UTF-8" standalone="no" ?>
<gpx xmlns="http://www.topografix.com/GPX/1/1" xmlns:xsi="http://www.w3.org/2001/XMLSchema-instance" xsi:schemaLocation="http://www.topografix.com/GPX/1/1 http://www.topografix.com/GPX/1/1/gpx.xsd" version="1.1" creator="VisuGPX - https://www.visugpx.com">
  <metadata>
    <name>source de la Buèges - cirque de la Séranne </name>
    <desc><![CDATA[2016-04 - source de la Buèges - combe des Natges - le Ranquet - le Coulet - Pégairolles-de-Buèges

[b]album[/b] : [url]https://goo.gl/photos/jnjPpZSLHfyoaP4bA[/url]
[img]https://3.bp.blogspot.com/-5bE7Bm6QmdU/WNGE-qZTsJI/AAAAAAAARGM/P_gR4aa5YQQ_UBltkZzekNEWVl50_bkXwCLcB/s1600/2016-04_seranne_i.JPG[/img]
[b]Idées de randonnées dans la même région[/b]
Parcours : [url]https://www.visugpx.com/membres/24856/causses/seranne/[/url]
Photos : [url]https://jcvertygo.blogspot.com/p/seranne.html[/url]]]></desc>
  </metadata>
  <trk>
    <name><![CDATA[source de la Buèges - cirque de la Séranne _1]]></name>
    <trkseg>
      <trkpt lat="43.81273" lon="3.59097">
        <ele>165.4</ele>
        <time>2016-04-06T09:55:43Z</time>
      </trkpt>
      <trkpt lat="43.81269" lon="3.59095">
        <ele>165.4</ele>
        <time>2016-04-06T09:55:48Z</time>
      </trkpt>
      <trkpt lat="43.81264" lon="3.59096">
        <ele>167.19696956289</ele>
        <time>2016-04-06T09:55:56Z</time>
      </trkpt>
      <trkpt lat="43.81255" lon="3.59074">
        <ele>168.24348244927</ele>
        <time>2016-04-06T09:56:23Z</time>
      </trkpt>
      <trkpt lat="43.8127" lon="3.59004">
        <ele>169.52140453314</ele>
        <time>2016-04-06T09:57:27Z</time>
      </trkpt>
      <trkpt lat="43.81274" lon="3.58977">
        <ele>170.62370294911</ele>
        <time>2016-04-06T09:57:49Z</time>
      </trkpt>
      <trkpt lat="43.81275" lon="3.58973">
        <ele>170.62370294911</ele>
        <time>2016-04-06T09:57:49Z</time>
      </trkpt>
      <trkpt lat="43.81278" lon="3.58958">
        <ele>171.60817241762</ele>
        <time>2016-04-06T09:57:58Z</time>
      </trkpt>
      <trkpt lat="43.81279" lon="3.58954">
        <ele>171.60817241762</ele>
        <time>2016-04-06T09:58:03Z</time>
      </trkpt>
      <trkpt lat="43.81277" lon="3.58941">
        <ele>172.47439088289</ele>
        <time>2016-04-06T09:58:13Z</time>
      </trkpt>
      <trkpt lat="43.81274" lon="3.58935">
        <ele>172.47439088289</ele>
        <time>2016-04-06T09:58:18Z</time>
      </trkpt>
      <trkpt lat="43.81267" lon="3.58927">
        <ele>173.23984742399</ele>
        <time>2016-04-06T09:58:28Z</time>
      </trkpt>
      <trkpt lat="43.81267" lon="3.58923">
        <ele>173.23984742399</ele>
        <time>2016-04-06T09:58:33Z</time>
      </trkpt>
      <trkpt lat="43.81263" lon="3.58912">
        <ele>173.94327973392</ele>
        <time>2016-04-06T09:58:43Z</time>
      </trkpt>
      <trkpt lat="43.81313" lon="3.58741">
        <ele>177.1504309876</ele>
        <time>2016-04-06T10:01:43Z</time>
      </trkpt>
      <trkpt lat="43.81317" lon="3.58732">
        <ele>177.1504309876</ele>
        <time>2016-04-06T10:01:49Z</time>
      </trkpt>
      <trkpt lat="43.8132" lon="3.58729">
        <ele>181.80685920426</ele>
        <time>2016-04-06T10:01:53Z</time>
      </trkpt>
      <trkpt lat="43.81323" lon="3.58723">
        <ele>181.80685920426</ele>
        <time>2016-04-06T10:01:58Z</time>
      </trkpt>
      <trkpt lat="43.81325" lon="3.58717">
        <ele>186.78566656764</ele>
        <time>2016-04-06T10:02:03Z</time>
      </trkpt>
      <trkpt lat="43.81328" lon="3.58715">
        <ele>186.78566656764</ele>
        <time>2016-04-06T10:02:08Z</time>
      </trkpt>
      <trkpt lat="43.81332" lon="3.58712">
        <ele>186.78566656764</ele>
        <time>2016-04-06T10:02:13Z</time>
      </trkpt>
      <trkpt lat="43.81347" lon="3.58701">
        <ele>192.16530194042</ele>
        <time>2016-04-06T10:02:34Z</time>
      </trkpt>
      <trkpt lat="43.81349" lon="3.58697">
        <ele>192.16530194042</ele>
        <time>2016-04-06T10:02:38Z</time>
      </trkpt>
      <trkpt lat="43.81361" lon="3.5869">
        <ele>197.20282350776</ele>
        <time>2016-04-06T10:02:58Z</time>
      </trkpt>
      <trkpt lat="43.81368" lon="3.58684">
        <ele>197.20282350776</ele>
        <time>2016-04-06T10:02:58Z</time>
      </trkpt>
      <trkpt lat="43.81376" lon="3.58673">
        <ele>201.94957136581</ele>
        <time>2016-04-06T10:03:15Z</time>
      </trkpt>
      <trkpt lat="43.81384" lon="3.58667">
        <ele>201.94957136581</ele>
        <time>2016-04-06T10:03:15Z</time>
      </trkpt>
      <trkpt lat="43.8139" lon="3.58661">
        <ele>206.34234830222</ele>
        <time>2016-04-06T10:03:32Z</time>
      </trkpt>
      <trkpt lat="43.8141" lon="3.58638">
        <ele>210.67924196717</ele>
        <time>2016-04-06T10:04:00Z</time>
      </trkpt>
      <trkpt lat="43.81416" lon="3.58635">
        <ele>210.67924196717</ele>
        <time>2016-04-06T10:04:06Z</time>
      </trkpt>
      <trkpt lat="43.81423" lon="3.58629">
        <ele>214.65949962497</ele>
        <time>2016-04-06T10:04:19Z</time>
      </trkpt>
      <trkpt lat="43.81426" lon="3.5863">
        <ele>214.65949962497</ele>
        <time>2016-04-06T10:04:23Z</time>
      </trkpt>
      <trkpt lat="43.81428" lon="3.58632">
        <ele>214.65949962497</ele>
        <time>2016-04-06T10:04:40Z</time>
      </trkpt>
      <trkpt lat="43.81434" lon="3.58634">
        <ele>218.45938437038</ele>
        <time>2016-04-06T10:04:40Z</time>
      </trkpt>
      <trkpt lat="43.81443" lon="3.58635">
        <ele>218.45938437038</ele>
        <time>2016-04-06T10:04:57Z</time>
      </trkpt>
      <trkpt lat="43.8146" lon="3.58627">
        <ele>222.25388820561</ele>
        <time>2016-04-06T10:05:16Z</time>
      </trkpt>
      <trkpt lat="43.81463" lon="3.58625">
        <ele>222.25388820561</ele>
        <time>2016-04-06T10:05:16Z</time>
      </trkpt>
      <trkpt lat="43.81519" lon="3.58593">
        <ele>227.07585596032</ele>
        <time>2016-04-06T10:06:33Z</time>
      </trkpt>
      <trkpt lat="43.8152" lon="3.586">
        <ele>227.07585596032</ele>
        <time>2016-04-06T10:06:41Z</time>
      </trkpt>
      <trkpt lat="43.81519" lon="3.58603">
        <ele>227.07585596032</ele>
        <time>2016-04-06T10:06:56Z</time>
      </trkpt>
      <trkpt lat="43.8153" lon="3.58588">
        <ele>231.50244380642</ele>
        <time>2016-04-06T10:07:20Z</time>
      </trkpt>
      <trkpt lat="43.81543" lon="3.58573">
        <ele>235.51405311941</ele>
        <time>2016-04-06T10:08:00Z</time>
      </trkpt>
      <trkpt lat="43.81588" lon="3.58537">
        <ele>239.32078202155</ele>
        <time>2016-04-06T10:09:26Z</time>
      </trkpt>
      <trkpt lat="43.81593" lon="3.58533">
        <ele>239.32078202155</ele>
        <time>2016-04-06T10:09:26Z</time>
      </trkpt>
      <trkpt lat="43.81598" lon="3.58525">
        <ele>242.67857240715</ele>
        <time>2016-04-06T10:09:50Z</time>
      </trkpt>
      <trkpt lat="43.81622" lon="3.58507">
        <ele>245.65046001125</ele>
        <time>2016-04-06T10:10:24Z</time>
      </trkpt>
      <trkpt lat="43.81626" lon="3.58503">
        <ele>245.65046001125</ele>
        <time>2016-04-06T10:10:32Z</time>
      </trkpt>
      <trkpt lat="43.81631" lon="3.58497">
        <ele>248.20481529559</ele>
        <time>2016-04-06T10:10:43Z</time>
      </trkpt>
      <trkpt lat="43.81644" lon="3.58468">
        <ele>250.66829099654</ele>
        <time>2016-04-06T10:11:30Z</time>
      </trkpt>
      <trkpt lat="43.81651" lon="3.58454">
        <ele>252.80885117951</ele>
        <time>2016-04-06T10:11:50Z</time>
      </trkpt>
      <trkpt lat="43.81655" lon="3.58453">
        <ele>252.80885117951</ele>
        <time>2016-04-06T10:11:50Z</time>
      </trkpt>
      <trkpt lat="43.81657" lon="3.58452">
        <ele>252.80885117951</ele>
        <time>2016-04-06T10:12:12Z</time>
      </trkpt>
      <trkpt lat="43.81666" lon="3.58445">
        <ele>254.69712754443</ele>
        <time>2016-04-06T10:12:12Z</time>
      </trkpt>
      <trkpt lat="43.81657" lon="3.58423">
        <ele>256.61877484459</ele>
        <time>2016-04-06T10:12:52Z</time>
      </trkpt>
      <trkpt lat="43.81657" lon="3.5842">
        <ele>256.61877484459</ele>
        <time>2016-04-06T10:12:58Z</time>
      </trkpt>
      <trkpt lat="43.81657" lon="3.58417">
        <ele>256.61877484459</ele>
        <time>2016-04-06T10:12:58Z</time>
      </trkpt>
      <trkpt lat="43.81657" lon="3.58415">
        <ele>256.61877484459</ele>
        <time>2016-04-06T10:13:14Z</time>
      </trkpt>
      <trkpt lat="43.81654" lon="3.58402">
        <ele>258.68115121251</ele>
        <time>2016-04-06T10:13:31Z</time>
      </trkpt>
      <trkpt lat="43.81652" lon="3.58389">
        <ele>260.63674467995</ele>
        <time>2016-04-06T10:13:56Z</time>
      </trkpt>
      <trkpt lat="43.81646" lon="3.58384">
        <ele>260.63674467995</ele>
        <time>2016-04-06T10:14:23Z</time>
      </trkpt>
      <trkpt lat="43.81653" lon="3.58368">
        <ele>262.64577905835</ele>
        <time>2016-04-06T10:14:38Z</time>
      </trkpt>
      <trkpt lat="43.81655" lon="3.58364">
        <ele>262.64577905835</ele>
        <time>2016-04-06T10:14:48Z</time>
      </trkpt>
      <trkpt lat="43.81655" lon="3.5832">
        <ele>266.41535161239</ele>
        <time>2016-04-06T10:15:42Z</time>
      </trkpt>
      <trkpt lat="43.81657" lon="3.58319">
        <ele>266.41535161239</ele>
        <time>2016-04-06T10:15:42Z</time>
      </trkpt>
      <trkpt lat="43.81687" lon="3.58296">
        <ele>270.90913707645</ele>
        <time>2016-04-06T10:16:33Z</time>
      </trkpt>
      <trkpt lat="43.81699" lon="3.58291">
        <ele>275.4213392799</ele>
        <time>2016-04-06T10:17:00Z</time>
      </trkpt>
      <trkpt lat="43.81716" lon="3.58285">
        <ele>280.27203592744</ele>
        <time>2016-04-06T10:17:36Z</time>
      </trkpt>
      <trkpt lat="43.81712" lon="3.58288">
        <ele>280.27203592744</ele>
        <time>2016-04-06T10:17:36Z</time>
      </trkpt>
      <trkpt lat="43.81702" lon="3.58283">
        <ele>285.57897608235</ele>
        <time>2016-04-06T10:17:53Z</time>
      </trkpt>
      <trkpt lat="43.81709" lon="3.58277">
        <ele>285.57897608235</ele>
        <time>2016-04-06T10:18:26Z</time>
      </trkpt>
      <trkpt lat="43.8171" lon="3.58266">
        <ele>291.16700085658</ele>
        <time>2016-04-06T10:19:00Z</time>
      </trkpt>
      <trkpt lat="43.81726" lon="3.58242">
        <ele>297.55820021702</ele>
        <time>2016-04-06T10:19:55Z</time>
      </trkpt>
      <trkpt lat="43.81723" lon="3.58237">
        <ele>297.55820021702</ele>
        <time>2016-04-06T10:20:01Z</time>
      </trkpt>
      <trkpt lat="43.81723" lon="3.58235">
        <ele>297.55820021702</ele>
        <time>2016-04-06T10:20:46Z</time>
      </trkpt>
      <trkpt lat="43.81737" lon="3.58214">
        <ele>304.76780998826</ele>
        <time>2016-04-06T10:21:24Z</time>
      </trkpt>
      <trkpt lat="43.81738" lon="3.58211">
        <ele>304.76780998826</ele>
        <time>2016-04-06T10:21:24Z</time>
      </trkpt>
      <trkpt lat="43.81747" lon="3.58206">
        <ele>311.34920980783</ele>
        <time>2016-04-06T10:21:33Z</time>
      </trkpt>
      <trkpt lat="43.81748" lon="3.58204">
        <ele>311.34920980783</ele>
        <time>2016-04-06T10:21:38Z</time>
      </trkpt>
      <trkpt lat="43.81751" lon="3.58198">
        <ele>311.34920980783</ele>
        <time>2016-04-06T10:21:58Z</time>
      </trkpt>
      <trkpt lat="43.81752" lon="3.58189">
        <ele>317.29577004978</ele>
        <time>2016-04-06T10:21:58Z</time>
      </trkpt>
      <trkpt lat="43.8177" lon="3.5816">
        <ele>323.01783329111</ele>
        <time>2016-04-06T10:22:30Z</time>
      </trkpt>
      <trkpt lat="43.81772" lon="3.58156">
        <ele>323.01783329111</ele>
        <time>2016-04-06T10:22:36Z</time>
      </trkpt>
      <trkpt lat="43.81778" lon="3.58143">
        <ele>328.50473507025</ele>
        <time>2016-04-06T10:23:13Z</time>
      </trkpt>
      <trkpt lat="43.81783" lon="3.5813">
        <ele>334.53793936518</ele>
        <time>2016-04-06T10:24:12Z</time>
      </trkpt>
      <trkpt lat="43.81797" lon="3.5811">
        <ele>341.32605308453</ele>
        <time>2016-04-06T10:26:00Z</time>
      </trkpt>
      <trkpt lat="43.81796" lon="3.58109">
        <ele>341.32605308453</ele>
        <time>2016-04-06T10:26:05Z</time>
      </trkpt>
      <trkpt lat="43.81802" lon="3.58087">
        <ele>347.40976661686</ele>
        <time>2016-04-06T10:26:37Z</time>
      </trkpt>
      <trkpt lat="43.8181" lon="3.58074">
        <ele>352.99397974526</ele>
        <time>2016-04-06T10:27:08Z</time>
      </trkpt>
      <trkpt lat="43.81793" lon="3.58061">
        <ele>357.97215652568</ele>
        <time>2016-04-06T10:27:32Z</time>
      </trkpt>
      <trkpt lat="43.81791" lon="3.5806">
        <ele>357.97215652568</ele>
        <time>2016-04-06T10:27:39Z</time>
      </trkpt>
      <trkpt lat="43.81781" lon="3.58065">
        <ele>362.40029306656</ele>
        <time>2016-04-06T10:27:50Z</time>
      </trkpt>
      <trkpt lat="43.81773" lon="3.58047">
        <ele>366.45464467202</ele>
        <time>2016-04-06T10:28:37Z</time>
      </trkpt>
      <trkpt lat="43.8178" lon="3.58036">
        <ele>369.89294212203</ele>
        <time>2016-04-06T10:28:58Z</time>
      </trkpt>
      <trkpt lat="43.81783" lon="3.58029">
        <ele>369.89294212203</ele>
        <time>2016-04-06T10:28:58Z</time>
      </trkpt>
      <trkpt lat="43.81796" lon="3.58015">
        <ele>372.91719984652</ele>
        <time>2016-04-06T10:29:31Z</time>
      </trkpt>
      <trkpt lat="43.81795" lon="3.58008">
        <ele>372.91719984652</ele>
        <time>2016-04-06T10:29:31Z</time>
      </trkpt>
      <trkpt lat="43.81792" lon="3.58007">
        <ele>372.91719984652</ele>
        <time>2016-04-06T10:29:36Z</time>
      </trkpt>
      <trkpt lat="43.81784" lon="3.57979">
        <ele>376.1074339361</ele>
        <time>2016-04-06T10:30:35Z</time>
      </trkpt>
      <trkpt lat="43.81788" lon="3.57978">
        <ele>376.1074339361</ele>
        <time>2016-04-06T10:30:54Z</time>
      </trkpt>
      <trkpt lat="43.81807" lon="3.57976">
        <ele>378.91254545278</ele>
        <time>2016-04-06T10:31:08Z</time>
      </trkpt>
      <trkpt lat="43.81838" lon="3.57944">
        <ele>381.80435722687</ele>
        <time>2016-04-06T10:32:00Z</time>
      </trkpt>
      <trkpt lat="43.81835" lon="3.57941">
        <ele>381.80435722687</ele>
        <time>2016-04-06T10:32:16Z</time>
      </trkpt>
      <trkpt lat="43.81829" lon="3.57938">
        <ele>384.69041216888</ele>
        <time>2016-04-06T10:32:16Z</time>
      </trkpt>
      <trkpt lat="43.81828" lon="3.57937">
        <ele>384.69041216888</ele>
        <time>2016-04-06T10:32:17Z</time>
      </trkpt>
      <trkpt lat="43.8181" lon="3.57918">
        <ele>387.79997840524</ele>
        <time>2016-04-06T10:32:53Z</time>
      </trkpt>
      <trkpt lat="43.81815" lon="3.57915">
        <ele>387.79997840524</ele>
        <time>2016-04-06T10:33:11Z</time>
      </trkpt>
      <trkpt lat="43.81818" lon="3.57914">
        <ele>387.79997840524</ele>
        <time>2016-04-06T10:33:17Z</time>
      </trkpt>
      <trkpt lat="43.81822" lon="3.57911">
        <ele>390.62553005759</ele>
        <time>2016-04-06T10:33:22Z</time>
      </trkpt>
      <trkpt lat="43.81822" lon="3.5791">
        <ele>390.62553005759</ele>
        <time>2016-04-06T10:33:25Z</time>
      </trkpt>
      <trkpt lat="43.81824" lon="3.57909">
        <ele>390.62553005759</ele>
        <time>2016-04-06T10:33:29Z</time>
      </trkpt>
      <trkpt lat="43.81839" lon="3.57895">
        <ele>393.62635238293</ele>
        <time>2016-04-06T10:33:58Z</time>
      </trkpt>
      <trkpt lat="43.81842" lon="3.57884">
        <ele>396.50925940817</ele>
        <time>2016-04-06T10:34:17Z</time>
      </trkpt>
      <trkpt lat="43.81852" lon="3.57866">
        <ele>399.46538303733</ele>
        <time>2016-04-06T10:34:32Z</time>
      </trkpt>
      <trkpt lat="43.81845" lon="3.57849">
        <ele>403.23121355216</ele>
        <time>2016-04-06T10:35:16Z</time>
      </trkpt>
      <trkpt lat="43.81854" lon="3.57817">
        <ele>407.00461224397</ele>
        <time>2016-04-06T10:36:00Z</time>
      </trkpt>
      <trkpt lat="43.81855" lon="3.57809">
        <ele>407.00461224397</ele>
        <time>2016-04-06T10:36:16Z</time>
      </trkpt>
      <trkpt lat="43.81856" lon="3.57804">
        <ele>410.4035098809</ele>
        <time>2016-04-06T10:36:16Z</time>
      </trkpt>
      <trkpt lat="43.81864" lon="3.57795">
        <ele>413.44543250552</ele>
        <time>2016-04-06T10:36:25Z</time>
      </trkpt>
      <trkpt lat="43.81865" lon="3.57793">
        <ele>413.44543250552</ele>
        <time>2016-04-06T10:36:28Z</time>
      </trkpt>
      <trkpt lat="43.81875" lon="3.57786">
        <ele>416.32300435557</ele>
        <time>2016-04-06T10:36:59Z</time>
      </trkpt>
      <trkpt lat="43.81879" lon="3.57775">
        <ele>416.32300435557</ele>
        <time>2016-04-06T10:37:32Z</time>
      </trkpt>
      <trkpt lat="43.81875" lon="3.57773">
        <ele>419.54956911199</ele>
        <time>2016-04-06T10:37:32Z</time>
      </trkpt>
      <trkpt lat="43.81857" lon="3.57771">
        <ele>422.73501157624</ele>
        <time>2016-04-06T10:38:00Z</time>
      </trkpt>
      <trkpt lat="43.81856" lon="3.57771">
        <ele>422.73501157624</ele>
        <time>2016-04-06T10:38:00Z</time>
      </trkpt>
      <trkpt lat="43.8185" lon="3.57772">
        <ele>422.73501157624</ele>
        <time>2016-04-06T10:38:14Z</time>
      </trkpt>
      <trkpt lat="43.81842" lon="3.5776">
        <ele>425.94323752338</ele>
        <time>2016-04-06T10:38:34Z</time>
      </trkpt>
      <trkpt lat="43.81841" lon="3.5774">
        <ele>429.00027206373</ele>
        <time>2016-04-06T10:39:00Z</time>
      </trkpt>
      <trkpt lat="43.81843" lon="3.57731">
        <ele>429.00027206373</ele>
        <time>2016-04-06T10:39:16Z</time>
      </trkpt>
      <trkpt lat="43.81851" lon="3.57727">
        <ele>431.83341963699</ele>
        <time>2016-04-06T10:39:16Z</time>
      </trkpt>
      <trkpt lat="43.8186" lon="3.57722">
        <ele>434.40518156397</ele>
        <time>2016-04-06T10:39:34Z</time>
      </trkpt>
      <trkpt lat="43.81859" lon="3.57721">
        <ele>434.40518156397</ele>
        <time>2016-04-06T10:39:34Z</time>
      </trkpt>
      <trkpt lat="43.81866" lon="3.57704">
        <ele>437.46385551612</ele>
        <time>2016-04-06T10:40:39Z</time>
      </trkpt>
      <trkpt lat="43.81873" lon="3.57703">
        <ele>437.46385551612</ele>
        <time>2016-04-06T10:40:59Z</time>
      </trkpt>
      <trkpt lat="43.81881" lon="3.57701">
        <ele>440.97478112251</ele>
        <time>2016-04-06T10:41:28Z</time>
      </trkpt>
      <trkpt lat="43.819" lon="3.57684">
        <ele>445.13633552286</ele>
        <time>2016-04-06T10:42:09Z</time>
      </trkpt>
      <trkpt lat="43.81901" lon="3.5767">
        <ele>449.30646239241</ele>
        <time>2016-04-06T10:42:30Z</time>
      </trkpt>
      <trkpt lat="43.81902" lon="3.5767">
        <ele>449.30646239241</ele>
        <time>2016-04-06T10:42:33Z</time>
      </trkpt>
      <trkpt lat="43.81907" lon="3.57668">
        <ele>449.30646239241</ele>
        <time>2016-04-06T10:42:57Z</time>
      </trkpt>
      <trkpt lat="43.81906" lon="3.57668">
        <ele>449.30646239241</ele>
        <time>2016-04-06T10:42:58Z</time>
      </trkpt>
      <trkpt lat="43.819" lon="3.57667">
        <ele>453.83071870169</ele>
        <time>2016-04-06T10:43:17Z</time>
      </trkpt>
      <trkpt lat="43.81891" lon="3.57659">
        <ele>458.01709228109</ele>
        <time>2016-04-06T10:43:17Z</time>
      </trkpt>
      <trkpt lat="43.81872" lon="3.57631">
        <ele>462.64058821188</ele>
        <time>2016-04-06T10:44:00Z</time>
      </trkpt>
      <trkpt lat="43.81873" lon="3.57625">
        <ele>462.64058821188</ele>
        <time>2016-04-06T10:44:00Z</time>
      </trkpt>
      <trkpt lat="43.81873" lon="3.57612">
        <ele>468.53240085062</ele>
        <time>2016-04-06T10:45:11Z</time>
      </trkpt>
      <trkpt lat="43.81866" lon="3.5761">
        <ele>468.53240085062</ele>
        <time>2016-04-06T10:45:11Z</time>
      </trkpt>
      <trkpt lat="43.81843" lon="3.57605">
        <ele>474.23742394727</ele>
        <time>2016-04-06T10:45:52Z</time>
      </trkpt>
      <trkpt lat="43.81837" lon="3.57602">
        <ele>474.23742394727</ele>
        <time>2016-04-06T10:45:52Z</time>
      </trkpt>
      <trkpt lat="43.81831" lon="3.57595">
        <ele>479.46183480436</ele>
        <time>2016-04-06T10:46:09Z</time>
      </trkpt>
      <trkpt lat="43.81837" lon="3.57583">
        <ele>484.38174695274</ele>
        <time>2016-04-06T10:46:22Z</time>
      </trkpt>
      <trkpt lat="43.81838" lon="3.57583">
        <ele>484.38174695274</ele>
        <time>2016-04-06T10:46:25Z</time>
      </trkpt>
      <trkpt lat="43.81881" lon="3.57553">
        <ele>490.77583180054</ele>
        <time>2016-04-06T10:47:53Z</time>
      </trkpt>
      <trkpt lat="43.81879" lon="3.57548">
        <ele>490.77583180054</ele>
        <time>2016-04-06T10:48:17Z</time>
      </trkpt>
      <trkpt lat="43.81902" lon="3.57508">
        <ele>497.53395353429</ele>
        <time>2016-04-06T10:49:00Z</time>
      </trkpt>
      <trkpt lat="43.81878" lon="3.57475">
        <ele>503.82856589994</ele>
        <time>2016-04-06T10:49:25Z</time>
      </trkpt>
      <trkpt lat="43.81894" lon="3.57466">
        <ele>509.49978111708</ele>
        <time>2016-04-06T10:49:43Z</time>
      </trkpt>
      <trkpt lat="43.81918" lon="3.57459">
        <ele>514.61748482889</ele>
        <time>2016-04-06T10:50:10Z</time>
      </trkpt>
      <trkpt lat="43.81929" lon="3.57466">
        <ele>519.08942093391</ele>
        <time>2016-04-06T10:50:10Z</time>
      </trkpt>
      <trkpt lat="43.81939" lon="3.5747">
        <ele>523.03386281696</ele>
        <time>2016-04-06T10:50:26Z</time>
      </trkpt>
      <trkpt lat="43.81943" lon="3.57471">
        <ele>523.03386281696</ele>
        <time>2016-04-06T10:50:26Z</time>
      </trkpt>
      <trkpt lat="43.81958" lon="3.57471">
        <ele>526.8792410637</ele>
        <time>2016-04-06T10:51:00Z</time>
      </trkpt>
      <trkpt lat="43.81956" lon="3.57473">
        <ele>526.8792410637</ele>
        <time>2016-04-06T10:51:00Z</time>
      </trkpt>
      <trkpt lat="43.81953" lon="3.57463">
        <ele>530.46048382839</ele>
        <time>2016-04-06T10:51:16Z</time>
      </trkpt>
      <trkpt lat="43.81952" lon="3.57464">
        <ele>530.46048382839</ele>
        <time>2016-04-06T10:51:21Z</time>
      </trkpt>
      <trkpt lat="43.81973" lon="3.57448">
        <ele>533.8417824647</ele>
        <time>2016-04-06T10:51:50Z</time>
      </trkpt>
      <trkpt lat="43.82011" lon="3.57424">
        <ele>537.6457566808</ele>
        <time>2016-04-06T10:52:36Z</time>
      </trkpt>
      <trkpt lat="43.82035" lon="3.57425">
        <ele>541.36641485056</ele>
        <time>2016-04-06T10:53:11Z</time>
      </trkpt>
      <trkpt lat="43.82044" lon="3.57415">
        <ele>545.1409959174</ele>
        <time>2016-04-06T10:53:34Z</time>
      </trkpt>
      <trkpt lat="43.8205" lon="3.57411">
        <ele>545.1409959174</ele>
        <time>2016-04-06T10:53:43Z</time>
      </trkpt>
      <trkpt lat="43.82055" lon="3.57402">
        <ele>548.77920685286</ele>
        <time>2016-04-06T10:53:51Z</time>
      </trkpt>
      <trkpt lat="43.8206" lon="3.57405">
        <ele>548.77920685286</ele>
        <time>2016-04-06T10:54:08Z</time>
      </trkpt>
      <trkpt lat="43.82068" lon="3.57414">
        <ele>552.04745258668</ele>
        <time>2016-04-06T10:54:08Z</time>
      </trkpt>
      <trkpt lat="43.82075" lon="3.57419">
        <ele>552.04745258668</ele>
        <time>2016-04-06T10:54:24Z</time>
      </trkpt>
      <trkpt lat="43.82079" lon="3.57418">
        <ele>554.94674475114</ele>
        <time>2016-04-06T10:54:25Z</time>
      </trkpt>
      <trkpt lat="43.82085" lon="3.57421">
        <ele>554.94674475114</ele>
        <time>2016-04-06T10:54:38Z</time>
      </trkpt>
      <trkpt lat="43.82085" lon="3.57424">
        <ele>554.94674475114</ele>
        <time>2016-04-06T10:54:41Z</time>
      </trkpt>
      <trkpt lat="43.82118" lon="3.57466">
        <ele>559.13785840232</ele>
        <time>2016-04-06T10:55:38Z</time>
      </trkpt>
      <trkpt lat="43.82117" lon="3.57466">
        <ele>559.13785840232</ele>
        <time>2016-04-06T10:55:38Z</time>
      </trkpt>
      <trkpt lat="43.82109" lon="3.57454">
        <ele>563.05459672096</ele>
        <time>2016-04-06T10:56:11Z</time>
      </trkpt>
      <trkpt lat="43.82112" lon="3.57452">
        <ele>563.05459672096</ele>
        <time>2016-04-06T10:56:11Z</time>
      </trkpt>
      <trkpt lat="43.82123" lon="3.57448">
        <ele>567.03530368586</ele>
        <time>2016-04-06T10:56:45Z</time>
      </trkpt>
      <trkpt lat="43.82132" lon="3.57445">
        <ele>570.49900888531</ele>
        <time>2016-04-06T10:56:46Z</time>
      </trkpt>
      <trkpt lat="43.82154" lon="3.57502">
        <ele>574.94253000573</ele>
        <time>2016-04-06T10:57:53Z</time>
      </trkpt>
      <trkpt lat="43.82146" lon="3.57475">
        <ele>579.18260245089</ele>
        <time>2016-04-06T10:58:24Z</time>
      </trkpt>
      <trkpt lat="43.8215" lon="3.57471">
        <ele>579.18260245089</ele>
        <time>2016-04-06T10:58:24Z</time>
      </trkpt>
      <trkpt lat="43.82163" lon="3.57467">
        <ele>583.23410887536</ele>
        <time>2016-04-06T10:58:50Z</time>
      </trkpt>
      <trkpt lat="43.82162" lon="3.57474">
        <ele>583.23410887536</ele>
        <time>2016-04-06T10:58:50Z</time>
      </trkpt>
      <trkpt lat="43.8217" lon="3.57473">
        <ele>587.73143211085</ele>
        <time>2016-04-06T10:59:16Z</time>
      </trkpt>
      <trkpt lat="43.82169" lon="3.57473">
        <ele>587.73143211085</ele>
        <time>2016-04-06T10:59:25Z</time>
      </trkpt>
      <trkpt lat="43.8217" lon="3.57447">
        <ele>592.23716860343</ele>
        <time>2016-04-06T11:00:18Z</time>
      </trkpt>
      <trkpt lat="43.82173" lon="3.57435">
        <ele>596.93728601416</ele>
        <time>2016-04-06T11:00:55Z</time>
      </trkpt>
      <trkpt lat="43.82166" lon="3.57415">
        <ele>601.49887288466</ele>
        <time>2016-04-06T11:01:22Z</time>
      </trkpt>
      <trkpt lat="43.82173" lon="3.57416">
        <ele>601.49887288466</ele>
        <time>2016-04-06T11:01:22Z</time>
      </trkpt>
      <trkpt lat="43.8218" lon="3.5743">
        <ele>606.32038492032</ele>
        <time>2016-04-06T11:01:48Z</time>
      </trkpt>
      <trkpt lat="43.82179" lon="3.57426">
        <ele>606.32038492032</ele>
        <time>2016-04-06T11:01:48Z</time>
      </trkpt>
      <trkpt lat="43.82179" lon="3.57425">
        <ele>606.32038492032</ele>
        <time>2016-04-06T11:01:50Z</time>
      </trkpt>
      <trkpt lat="43.82174" lon="3.57418">
        <ele>610.76103949067</ele>
        <time>2016-04-06T11:01:58Z</time>
      </trkpt>
      <trkpt lat="43.82167" lon="3.57404">
        <ele>614.97795538869</ele>
        <time>2016-04-06T11:02:24Z</time>
      </trkpt>
      <trkpt lat="43.82169" lon="3.57394">
        <ele>614.97795538869</ele>
        <time>2016-04-06T11:02:33Z</time>
      </trkpt>
      <trkpt lat="43.82169" lon="3.57392">
        <ele>618.9731613633</ele>
        <time>2016-04-06T11:02:38Z</time>
      </trkpt>
      <trkpt lat="43.82176" lon="3.57378">
        <ele>623.16719412162</ele>
        <time>2016-04-06T11:03:05Z</time>
      </trkpt>
      <trkpt lat="43.82177" lon="3.57372">
        <ele>623.16719412162</ele>
        <time>2016-04-06T11:03:15Z</time>
      </trkpt>
      <trkpt lat="43.82184" lon="3.57364">
        <ele>627.90584299225</ele>
        <time>2016-04-06T11:03:39Z</time>
      </trkpt>
      <trkpt lat="43.82217" lon="3.57375">
        <ele>634.1133165936</ele>
        <time>2016-04-06T11:05:00Z</time>
      </trkpt>
      <trkpt lat="43.82222" lon="3.57375">
        <ele>634.1133165936</ele>
        <time>2016-04-06T11:05:00Z</time>
      </trkpt>
      <trkpt lat="43.8224" lon="3.57396">
        <ele>641.1427460914</ele>
        <time>2016-04-06T11:05:32Z</time>
      </trkpt>
      <trkpt lat="43.8224" lon="3.57396">
        <ele>641.1427460914</ele>
        <time>2016-04-06T11:05:33Z</time>
      </trkpt>
      <trkpt lat="43.8224" lon="3.57396">
        <ele>641.1427460914</ele>
        <time>2016-04-06T11:05:38Z</time>
      </trkpt>
      <trkpt lat="43.82243" lon="3.57397">
        <ele>641.1427460914</ele>
        <time>2016-04-06T11:05:54Z</time>
      </trkpt>
      <trkpt lat="43.82247" lon="3.57402">
        <ele>647.83049111911</ele>
        <time>2016-04-06T11:06:15Z</time>
      </trkpt>
      <trkpt lat="43.82247" lon="3.57399">
        <ele>647.83049111911</ele>
        <time>2016-04-06T11:06:15Z</time>
      </trkpt>
      <trkpt lat="43.82267" lon="3.57407">
        <ele>654.2092817334</ele>
        <time>2016-04-06T11:06:46Z</time>
      </trkpt>
      <trkpt lat="43.82267" lon="3.57407">
        <ele>654.2092817334</ele>
        <time>2016-04-06T11:06:48Z</time>
      </trkpt>
      <trkpt lat="43.82266" lon="3.5741">
        <ele>654.2092817334</ele>
        <time>2016-04-06T11:06:58Z</time>
      </trkpt>
      <trkpt lat="43.82271" lon="3.57406">
        <ele>654.2092817334</ele>
        <time>2016-04-06T11:08:28Z</time>
      </trkpt>
      <trkpt lat="43.82272" lon="3.5741">
        <ele>659.37356188638</ele>
        <time>2016-04-06T11:09:33Z</time>
      </trkpt>
      <trkpt lat="43.82297" lon="3.57422">
        <ele>663.56873114341</ele>
        <time>2016-04-06T11:10:04Z</time>
      </trkpt>
      <trkpt lat="43.82312" lon="3.57433">
        <ele>666.9096281648</ele>
        <time>2016-04-06T11:10:30Z</time>
      </trkpt>
      <trkpt lat="43.8232" lon="3.57436">
        <ele>666.9096281648</ele>
        <time>2016-04-06T11:10:30Z</time>
      </trkpt>
      <trkpt lat="43.82377" lon="3.57432">
        <ele>668.10716690901</ele>
        <time>2016-04-06T11:11:27Z</time>
      </trkpt>
      <trkpt lat="43.82378" lon="3.57432">
        <ele>668.10716690901</ele>
        <time>2016-04-06T11:11:28Z</time>
      </trkpt>
      <trkpt lat="43.82388" lon="3.57426">
        <ele>668.48066105574</ele>
        <time>2016-04-06T11:11:45Z</time>
      </trkpt>
      <trkpt lat="43.82394" lon="3.5742">
        <ele>668.48066105574</ele>
        <time>2016-04-06T11:11:45Z</time>
      </trkpt>
      <trkpt lat="43.824" lon="3.57418">
        <ele>667.95775707256</ele>
        <time>2016-04-06T11:12:00Z</time>
      </trkpt>
      <trkpt lat="43.82408" lon="3.57412">
        <ele>667.95775707256</ele>
        <time>2016-04-06T11:12:00Z</time>
      </trkpt>
      <trkpt lat="43.82442" lon="3.57388">
        <ele>665.99833909723</ele>
        <time>2016-04-06T11:12:43Z</time>
      </trkpt>
      <trkpt lat="43.82451" lon="3.57383">
        <ele>663.69118965324</ele>
        <time>2016-04-06T11:12:43Z</time>
      </trkpt>
      <trkpt lat="43.82463" lon="3.57374">
        <ele>660.87865624442</ele>
        <time>2016-04-06T11:12:58Z</time>
      </trkpt>
      <trkpt lat="43.82497" lon="3.57351">
        <ele>657.32947089575</ele>
        <time>2016-04-06T11:13:32Z</time>
      </trkpt>
      <trkpt lat="43.82498" lon="3.5735">
        <ele>657.32947089575</ele>
        <time>2016-04-06T11:13:33Z</time>
      </trkpt>
      <trkpt lat="43.82521" lon="3.57336">
        <ele>653.26356107018</ele>
        <time>2016-04-06T11:14:00Z</time>
      </trkpt>
      <trkpt lat="43.82528" lon="3.57333">
        <ele>653.26356107018</ele>
        <time>2016-04-06T11:14:00Z</time>
      </trkpt>
      <trkpt lat="43.82539" lon="3.57326">
        <ele>648.92913421708</ele>
        <time>2016-04-06T11:14:12Z</time>
      </trkpt>
      <trkpt lat="43.82558" lon="3.57304">
        <ele>644.22516306904</ele>
        <time>2016-04-06T11:14:33Z</time>
      </trkpt>
      <trkpt lat="43.8256" lon="3.57303">
        <ele>644.22516306904</ele>
        <time>2016-04-06T11:14:33Z</time>
      </trkpt>
      <trkpt lat="43.82567" lon="3.57291">
        <ele>639.30372625353</ele>
        <time>2016-04-06T11:14:47Z</time>
      </trkpt>
      <trkpt lat="43.82571" lon="3.57288">
        <ele>639.30372625353</ele>
        <time>2016-04-06T11:14:55Z</time>
      </trkpt>
      <trkpt lat="43.82585" lon="3.57271">
        <ele>634.01772480229</ele>
        <time>2016-04-06T11:15:16Z</time>
      </trkpt>
      <trkpt lat="43.82592" lon="3.57265">
        <ele>634.01772480229</ele>
        <time>2016-04-06T11:15:16Z</time>
      </trkpt>
      <trkpt lat="43.82627" lon="3.57239">
        <ele>627.77028876949</ele>
        <time>2016-04-06T11:16:00Z</time>
      </trkpt>
      <trkpt lat="43.82632" lon="3.57236">
        <ele>627.77028876949</ele>
        <time>2016-04-06T11:16:00Z</time>
      </trkpt>
      <trkpt lat="43.82646" lon="3.57226">
        <ele>621.19234081387</ele>
        <time>2016-04-06T11:16:19Z</time>
      </trkpt>
      <trkpt lat="43.82649" lon="3.57219">
        <ele>621.19234081387</ele>
        <time>2016-04-06T11:16:34Z</time>
      </trkpt>
      <trkpt lat="43.82653" lon="3.57215">
        <ele>614.62387029265</ele>
        <time>2016-04-06T11:16:35Z</time>
      </trkpt>
      <trkpt lat="43.82671" lon="3.57179">
        <ele>607.3993244431</ele>
        <time>2016-04-06T11:17:21Z</time>
      </trkpt>
      <trkpt lat="43.82675" lon="3.57173">
        <ele>607.3993244431</ele>
        <time>2016-04-06T11:17:26Z</time>
      </trkpt>
      <trkpt lat="43.82688" lon="3.57151">
        <ele>599.8976638343</ele>
        <time>2016-04-06T11:17:55Z</time>
      </trkpt>
      <trkpt lat="43.82691" lon="3.57147">
        <ele>599.8976638343</ele>
        <time>2016-04-06T11:17:55Z</time>
      </trkpt>
      <trkpt lat="43.82689" lon="3.5712">
        <ele>592.44132345762</ele>
        <time>2016-04-06T11:18:23Z</time>
      </trkpt>
      <trkpt lat="43.82686" lon="3.57117">
        <ele>592.44132345762</ele>
        <time>2016-04-06T11:18:23Z</time>
      </trkpt>
      <trkpt lat="43.8269" lon="3.57101">
        <ele>584.79502317952</ele>
        <time>2016-04-06T11:18:44Z</time>
      </trkpt>
      <trkpt lat="43.82722" lon="3.56996">
        <ele>575.08326531862</ele>
        <time>2016-04-06T11:20:25Z</time>
      </trkpt>
      <trkpt lat="43.82733" lon="3.56968">
        <ele>565.40682815874</ele>
        <time>2016-04-06T11:20:50Z</time>
      </trkpt>
      <trkpt lat="43.82737" lon="3.56941">
        <ele>555.99632020561</ele>
        <time>2016-04-06T11:21:16Z</time>
      </trkpt>
      <trkpt lat="43.82734" lon="3.56934">
        <ele>555.99632020561</ele>
        <time>2016-04-06T11:21:16Z</time>
      </trkpt>
      <trkpt lat="43.82737" lon="3.56926">
        <ele>547.04943907423</ele>
        <time>2016-04-06T11:21:30Z</time>
      </trkpt>
      <trkpt lat="43.82742" lon="3.56916">
        <ele>547.04943907423</ele>
        <time>2016-04-06T11:21:30Z</time>
      </trkpt>
      <trkpt lat="43.82757" lon="3.56892">
        <ele>537.9834093386</ele>
        <time>2016-04-06T11:22:05Z</time>
      </trkpt>
      <trkpt lat="43.82759" lon="3.56885">
        <ele>537.9834093386</ele>
        <time>2016-04-06T11:22:05Z</time>
      </trkpt>
      <trkpt lat="43.82749" lon="3.56836">
        <ele>528.54596817445</ele>
        <time>2016-04-06T11:22:49Z</time>
      </trkpt>
      <trkpt lat="43.82748" lon="3.5683">
        <ele>528.54596817445</ele>
        <time>2016-04-06T11:22:49Z</time>
      </trkpt>
      <trkpt lat="43.82748" lon="3.56801">
        <ele>519.1664728405</ele>
        <time>2016-04-06T11:23:22Z</time>
      </trkpt>
      <trkpt lat="43.82762" lon="3.56728">
        <ele>508.5411289584</ele>
        <time>2016-04-06T11:24:35Z</time>
      </trkpt>
      <trkpt lat="43.82765" lon="3.5672">
        <ele>508.5411289584</ele>
        <time>2016-04-06T11:24:35Z</time>
      </trkpt>
      <trkpt lat="43.82769" lon="3.56669">
        <ele>497.23711199971</ele>
        <time>2016-04-06T11:25:22Z</time>
      </trkpt>
      <trkpt lat="43.82769" lon="3.56668">
        <ele>497.23711199971</ele>
        <time>2016-04-06T11:25:24Z</time>
      </trkpt>
      <trkpt lat="43.82771" lon="3.56655">
        <ele>486.76088196784</ele>
        <time>2016-04-06T11:25:33Z</time>
      </trkpt>
      <trkpt lat="43.82776" lon="3.56634">
        <ele>476.80442126573</ele>
        <time>2016-04-06T11:26:00Z</time>
      </trkpt>
      <trkpt lat="43.82781" lon="3.566">
        <ele>467.02228879078</ele>
        <time>2016-04-06T11:26:23Z</time>
      </trkpt>
      <trkpt lat="43.82784" lon="3.56516">
        <ele>456.51652585051</ele>
        <time>2016-04-06T11:27:36Z</time>
      </trkpt>
      <trkpt lat="43.82788" lon="3.56482">
        <ele>446.93496885903</ele>
        <time>2016-04-06T11:27:51Z</time>
      </trkpt>
      <trkpt lat="43.82788" lon="3.56477">
        <ele>446.93496885903</ele>
        <time>2016-04-06T11:27:56Z</time>
      </trkpt>
      <trkpt lat="43.82788" lon="3.5647">
        <ele>446.93496885903</ele>
        <time>2016-04-06T11:27:58Z</time>
      </trkpt>
      <trkpt lat="43.82791" lon="3.56425">
        <ele>438.67677814192</ele>
        <time>2016-04-06T11:28:40Z</time>
      </trkpt>
      <trkpt lat="43.82791" lon="3.56409">
        <ele>431.86215746463</ele>
        <time>2016-04-06T11:28:40Z</time>
      </trkpt>
      <trkpt lat="43.8279" lon="3.56392">
        <ele>426.26606762441</ele>
        <time>2016-04-06T11:28:58Z</time>
      </trkpt>
      <trkpt lat="43.82789" lon="3.56382">
        <ele>426.26606762441</ele>
        <time>2016-04-06T11:28:58Z</time>
      </trkpt>
      <trkpt lat="43.82792" lon="3.56341">
        <ele>421.38749001349</ele>
        <time>2016-04-06T11:29:26Z</time>
      </trkpt>
      <trkpt lat="43.82792" lon="3.56335">
        <ele>421.38749001349</ele>
        <time>2016-04-06T11:29:28Z</time>
      </trkpt>
      <trkpt lat="43.82797" lon="3.56312">
        <ele>417.26376872841</ele>
        <time>2016-04-06T11:29:47Z</time>
      </trkpt>
      <trkpt lat="43.82799" lon="3.56304">
        <ele>417.26376872841</ele>
        <time>2016-04-06T11:29:51Z</time>
      </trkpt>
      <trkpt lat="43.82859" lon="3.56118">
        <ele>411.63522737891</ele>
        <time>2016-04-06T11:32:28Z</time>
      </trkpt>
      <trkpt lat="43.82869" lon="3.56116">
        <ele>407.91676735114</ele>
        <time>2016-04-06T11:32:53Z</time>
      </trkpt>
      <trkpt lat="43.82859" lon="3.56095">
        <ele>405.23126037157</ele>
        <time>2016-04-06T11:33:29Z</time>
      </trkpt>
      <trkpt lat="43.82864" lon="3.561">
        <ele>405.23126037157</ele>
        <time>2016-04-06T11:33:33Z</time>
      </trkpt>
      <trkpt lat="43.82884" lon="3.56125">
        <ele>403.18042741316</ele>
        <time>2016-04-06T11:34:04Z</time>
      </trkpt>
      <trkpt lat="43.82912" lon="3.56129">
        <ele>401.79642656316</ele>
        <time>2016-04-06T11:34:28Z</time>
      </trkpt>
      <trkpt lat="43.82967" lon="3.56139">
        <ele>400.84729320618</ele>
        <time>2016-04-06T11:35:42Z</time>
      </trkpt>
      <trkpt lat="43.82978" lon="3.56145">
        <ele>400.49115112504</ele>
        <time>2016-04-06T11:35:42Z</time>
      </trkpt>
      <trkpt lat="43.83" lon="3.56155">
        <ele>400.71396805974</ele>
        <time>2016-04-06T11:36:06Z</time>
      </trkpt>
      <trkpt lat="43.83037" lon="3.56173">
        <ele>401.67376699014</ele>
        <time>2016-04-06T11:36:39Z</time>
      </trkpt>
      <trkpt lat="43.83041" lon="3.56174">
        <ele>401.67376699014</ele>
        <time>2016-04-06T11:36:40Z</time>
      </trkpt>
      <trkpt lat="43.83067" lon="3.56182">
        <ele>402.76529984392</ele>
        <time>2016-04-06T11:37:00Z</time>
      </trkpt>
      <trkpt lat="43.83084" lon="3.56188">
        <ele>404.01811869151</ele>
        <time>2016-04-06T11:37:22Z</time>
      </trkpt>
      <trkpt lat="43.83092" lon="3.56191">
        <ele>404.01811869151</ele>
        <time>2016-04-06T11:37:22Z</time>
      </trkpt>
      <trkpt lat="43.83102" lon="3.56193">
        <ele>405.57435946277</ele>
        <time>2016-04-06T11:37:35Z</time>
      </trkpt>
      <trkpt lat="43.83136" lon="3.56208">
        <ele>407.17574738125</ele>
        <time>2016-04-06T11:38:08Z</time>
      </trkpt>
      <trkpt lat="43.83167" lon="3.56223">
        <ele>408.97199680659</ele>
        <time>2016-04-06T11:38:36Z</time>
      </trkpt>
      <trkpt lat="43.83215" lon="3.56276">
        <ele>410.9716774307</ele>
        <time>2016-04-06T11:39:31Z</time>
      </trkpt>
      <trkpt lat="43.83224" lon="3.56283">
        <ele>413.11025729115</ele>
        <time>2016-04-06T11:39:32Z</time>
      </trkpt>
      <trkpt lat="43.83244" lon="3.56304">
        <ele>415.22688210367</ele>
        <time>2016-04-06T11:39:55Z</time>
      </trkpt>
      <trkpt lat="43.83285" lon="3.56331">
        <ele>417.37458285012</ele>
        <time>2016-04-06T11:40:36Z</time>
      </trkpt>
      <trkpt lat="43.83289" lon="3.56332">
        <ele>417.37458285012</ele>
        <time>2016-04-06T11:40:39Z</time>
      </trkpt>
      <trkpt lat="43.83335" lon="3.56388">
        <ele>418.53627800414</ele>
        <time>2016-04-06T11:41:33Z</time>
      </trkpt>
      <trkpt lat="43.83359" lon="3.5645">
        <ele>419.19939598303</ele>
        <time>2016-04-06T11:42:22Z</time>
      </trkpt>
      <trkpt lat="43.83387" lon="3.56501">
        <ele>419.54350370535</ele>
        <time>2016-04-06T11:42:58Z</time>
      </trkpt>
      <trkpt lat="43.83394" lon="3.56512">
        <ele>419.98124067712</ele>
        <time>2016-04-06T11:43:14Z</time>
      </trkpt>
      <trkpt lat="43.83395" lon="3.56519">
        <ele>419.98124067712</ele>
        <time>2016-04-06T11:43:14Z</time>
      </trkpt>
      <trkpt lat="43.83407" lon="3.56535">
        <ele>420.08804387943</ele>
        <time>2016-04-06T11:43:36Z</time>
      </trkpt>
      <trkpt lat="43.83424" lon="3.5655">
        <ele>420.06272975146</ele>
        <time>2016-04-06T11:43:50Z</time>
      </trkpt>
      <trkpt lat="43.83424" lon="3.56551">
        <ele>420.06272975146</ele>
        <time>2016-04-06T11:43:50Z</time>
      </trkpt>
      <trkpt lat="43.83432" lon="3.56575">
        <ele>419.96059548319</ele>
        <time>2016-04-06T11:44:16Z</time>
      </trkpt>
      <trkpt lat="43.83477" lon="3.56643">
        <ele>419.06972129112</ele>
        <time>2016-04-06T11:45:02Z</time>
      </trkpt>
      <trkpt lat="43.83481" lon="3.56659">
        <ele>418.39039691103</ele>
        <time>2016-04-06T11:45:13Z</time>
      </trkpt>
      <trkpt lat="43.83492" lon="3.56673">
        <ele>417.71077716729</ele>
        <time>2016-04-06T11:45:29Z</time>
      </trkpt>
      <trkpt lat="43.83494" lon="3.56677">
        <ele>417.71077716729</ele>
        <time>2016-04-06T11:45:33Z</time>
      </trkpt>
      <trkpt lat="43.83505" lon="3.5669">
        <ele>417.0223381077</ele>
        <time>2016-04-06T11:45:52Z</time>
      </trkpt>
      <trkpt lat="43.83509" lon="3.56698">
        <ele>417.0223381077</ele>
        <time>2016-04-06T11:45:52Z</time>
      </trkpt>
      <trkpt lat="43.83518" lon="3.56721">
        <ele>416.11585827185</ele>
        <time>2016-04-06T11:46:08Z</time>
      </trkpt>
      <trkpt lat="43.83534" lon="3.56803">
        <ele>415.47582077296</ele>
        <time>2016-04-06T11:46:51Z</time>
      </trkpt>
      <trkpt lat="43.83533" lon="3.56805">
        <ele>415.47582077296</ele>
        <time>2016-04-06T11:46:53Z</time>
      </trkpt>
      <trkpt lat="43.83533" lon="3.56806">
        <ele>415.47582077296</ele>
        <time>2016-04-06T11:46:58Z</time>
      </trkpt>
      <trkpt lat="43.83543" lon="3.5681">
        <ele>416.42984603774</ele>
        <time>2016-04-06T11:47:33Z</time>
      </trkpt>
      <trkpt lat="43.8355" lon="3.56829">
        <ele>417.65318009102</ele>
        <time>2016-04-06T11:48:02Z</time>
      </trkpt>
      <trkpt lat="43.83551" lon="3.56834">
        <ele>417.65318009102</ele>
        <time>2016-04-06T11:48:03Z</time>
      </trkpt>
      <trkpt lat="43.83552" lon="3.56853">
        <ele>418.91239010132</ele>
        <time>2016-04-06T11:48:23Z</time>
      </trkpt>
      <trkpt lat="43.83553" lon="3.56863">
        <ele>418.91239010132</ele>
        <time>2016-04-06T11:48:23Z</time>
      </trkpt>
      <trkpt lat="43.83553" lon="3.56876">
        <ele>420.17883134858</ele>
        <time>2016-04-06T11:48:31Z</time>
      </trkpt>
      <trkpt lat="43.83553" lon="3.56878">
        <ele>420.17883134858</ele>
        <time>2016-04-06T11:48:40Z</time>
      </trkpt>
      <trkpt lat="43.83553" lon="3.56891">
        <ele>421.44075484986</ele>
        <time>2016-04-06T11:48:40Z</time>
      </trkpt>
      <trkpt lat="43.83553" lon="3.56903">
        <ele>421.44075484986</ele>
        <time>2016-04-06T11:48:56Z</time>
      </trkpt>
      <trkpt lat="43.83557" lon="3.56915">
        <ele>422.65886902282</ele>
        <time>2016-04-06T11:48:56Z</time>
      </trkpt>
      <trkpt lat="43.83567" lon="3.56966">
        <ele>423.79729704559</ele>
        <time>2016-04-06T11:49:28Z</time>
      </trkpt>
      <trkpt lat="43.83568" lon="3.56971">
        <ele>423.79729704559</ele>
        <time>2016-04-06T11:49:35Z</time>
      </trkpt>
      <trkpt lat="43.83572" lon="3.57046">
        <ele>424.90989342313</ele>
        <time>2016-04-06T11:50:20Z</time>
      </trkpt>
      <trkpt lat="43.83572" lon="3.57056">
        <ele>424.90989342313</ele>
        <time>2016-04-06T11:50:20Z</time>
      </trkpt>
      <trkpt lat="43.83572" lon="3.57068">
        <ele>425.94615505556</ele>
        <time>2016-04-06T11:50:38Z</time>
      </trkpt>
      <trkpt lat="43.83572" lon="3.57086">
        <ele>426.87431467503</ele>
        <time>2016-04-06T11:50:38Z</time>
      </trkpt>
      <trkpt lat="43.83582" lon="3.57112">
        <ele>427.76651559306</ele>
        <time>2016-04-06T11:51:00Z</time>
      </trkpt>
      <trkpt lat="43.83598" lon="3.57143">
        <ele>428.51715847103</ele>
        <time>2016-04-06T11:51:18Z</time>
      </trkpt>
      <trkpt lat="43.83609" lon="3.57158">
        <ele>429.17329136256</ele>
        <time>2016-04-06T11:51:39Z</time>
      </trkpt>
      <trkpt lat="43.83613" lon="3.57167">
        <ele>429.17329136256</ele>
        <time>2016-04-06T11:51:39Z</time>
      </trkpt>
      <trkpt lat="43.83622" lon="3.57183">
        <ele>429.67826605</ele>
        <time>2016-04-06T11:51:54Z</time>
      </trkpt>
      <trkpt lat="43.83632" lon="3.57205">
        <ele>430.05243728276</ele>
        <time>2016-04-06T11:52:12Z</time>
      </trkpt>
      <trkpt lat="43.83634" lon="3.5721">
        <ele>430.05243728276</ele>
        <time>2016-04-06T11:52:16Z</time>
      </trkpt>
      <trkpt lat="43.83694" lon="3.57282">
        <ele>430.17127008222</ele>
        <time>2016-04-06T11:53:29Z</time>
      </trkpt>
      <trkpt lat="43.83728" lon="3.5732">
        <ele>430.09336354286</ele>
        <time>2016-04-06T11:54:09Z</time>
      </trkpt>
      <trkpt lat="43.83743" lon="3.57344">
        <ele>429.96035175432</ele>
        <time>2016-04-06T11:54:36Z</time>
      </trkpt>
      <trkpt lat="43.8375" lon="3.57349">
        <ele>429.96035175432</ele>
        <time>2016-04-06T11:54:36Z</time>
      </trkpt>
      <trkpt lat="43.83773" lon="3.57375">
        <ele>429.5724678687</ele>
        <time>2016-04-06T11:55:08Z</time>
      </trkpt>
      <trkpt lat="43.83794" lon="3.574">
        <ele>429.09148871437</ele>
        <time>2016-04-06T11:55:34Z</time>
      </trkpt>
      <trkpt lat="43.83858" lon="3.57493">
        <ele>428.46608136694</ele>
        <time>2016-04-06T11:56:57Z</time>
      </trkpt>
      <trkpt lat="43.83858" lon="3.57495">
        <ele>428.46608136694</ele>
        <time>2016-04-06T11:57:00Z</time>
      </trkpt>
      <trkpt lat="43.83868" lon="3.57533">
        <ele>427.85109471285</ele>
        <time>2016-04-06T11:57:27Z</time>
      </trkpt>
      <trkpt lat="43.83871" lon="3.57539">
        <ele>427.85109471285</ele>
        <time>2016-04-06T11:57:42Z</time>
      </trkpt>
      <trkpt lat="43.83875" lon="3.5754">
        <ele>427.20286000028</ele>
        <time>2016-04-06T11:57:42Z</time>
      </trkpt>
      <trkpt lat="43.83875" lon="3.57541">
        <ele>427.20286000028</ele>
        <time>2016-04-06T11:57:47Z</time>
      </trkpt>
      <trkpt lat="43.83884" lon="3.57548">
        <ele>426.55327787995</ele>
        <time>2016-04-06T11:57:55Z</time>
      </trkpt>
      <trkpt lat="43.83886" lon="3.57552">
        <ele>426.55327787995</ele>
        <time>2016-04-06T11:58:00Z</time>
      </trkpt>
      <trkpt lat="43.8389" lon="3.57576">
        <ele>426.11944889067</ele>
        <time>2016-04-06T11:58:21Z</time>
      </trkpt>
      <trkpt lat="43.83903" lon="3.57592">
        <ele>425.69858729277</ele>
        <time>2016-04-06T11:58:56Z</time>
      </trkpt>
      <trkpt lat="43.83924" lon="3.57614">
        <ele>425.24704143006</ele>
        <time>2016-04-06T11:59:27Z</time>
      </trkpt>
      <trkpt lat="43.83927" lon="3.57615">
        <ele>425.24704143006</ele>
        <time>2016-04-06T11:59:27Z</time>
      </trkpt>
      <trkpt lat="43.83931" lon="3.57623">
        <ele>424.81106738411</ele>
        <time>2016-04-06T11:59:33Z</time>
      </trkpt>
      <trkpt lat="43.83931" lon="3.57627">
        <ele>424.81106738411</ele>
        <time>2016-04-06T11:59:51Z</time>
      </trkpt>
      <trkpt lat="43.8394" lon="3.57636">
        <ele>424.34714768693</ele>
        <time>2016-04-06T12:00:00Z</time>
      </trkpt>
      <trkpt lat="43.83944" lon="3.57638">
        <ele>424.34714768693</ele>
        <time>2016-04-06T12:00:07Z</time>
      </trkpt>
      <trkpt lat="43.83979" lon="3.5767">
        <ele>423.82957286198</ele>
        <time>2016-04-06T12:00:50Z</time>
      </trkpt>
      <trkpt lat="43.83982" lon="3.57674">
        <ele>423.82957286198</ele>
        <time>2016-04-06T12:00:50Z</time>
      </trkpt>
      <trkpt lat="43.84018" lon="3.57699">
        <ele>423.49418210236</ele>
        <time>2016-04-06T12:01:41Z</time>
      </trkpt>
      <trkpt lat="43.84059" lon="3.57711">
        <ele>423.16997666488</ele>
        <time>2016-04-06T12:02:00Z</time>
      </trkpt>
      <trkpt lat="43.84064" lon="3.57714">
        <ele>423.16997666488</ele>
        <time>2016-04-06T12:02:00Z</time>
      </trkpt>
      <trkpt lat="43.84075" lon="3.57721">
        <ele>422.79945282493</ele>
        <time>2016-04-06T12:02:15Z</time>
      </trkpt>
      <trkpt lat="43.8411" lon="3.57734">
        <ele>422.44482707534</ele>
        <time>2016-04-06T12:02:58Z</time>
      </trkpt>
      <trkpt lat="43.84151" lon="3.57752">
        <ele>421.88995727944</ele>
        <time>2016-04-06T12:03:52Z</time>
      </trkpt>
      <trkpt lat="43.84186" lon="3.57767">
        <ele>421.39635476801</ele>
        <time>2016-04-06T12:04:25Z</time>
      </trkpt>
      <trkpt lat="43.84212" lon="3.57777">
        <ele>421.20619827828</ele>
        <time>2016-04-06T12:04:55Z</time>
      </trkpt>
      <trkpt lat="43.84241" lon="3.57787">
        <ele>421.05308891672</ele>
        <time>2016-04-06T12:05:24Z</time>
      </trkpt>
      <trkpt lat="43.84281" lon="3.57814">
        <ele>421.36745172759</ele>
        <time>2016-04-06T12:06:05Z</time>
      </trkpt>
      <trkpt lat="43.84289" lon="3.57817">
        <ele>421.36745172759</ele>
        <time>2016-04-06T12:06:05Z</time>
      </trkpt>
      <trkpt lat="43.84374" lon="3.57763">
        <ele>422.30182525657</ele>
        <time>2016-04-06T12:07:44Z</time>
      </trkpt>
      <trkpt lat="43.84382" lon="3.57717">
        <ele>423.18881258395</ele>
        <time>2016-04-06T12:08:29Z</time>
      </trkpt>
      <trkpt lat="43.84389" lon="3.57673">
        <ele>424.26046560218</ele>
        <time>2016-04-06T12:08:48Z</time>
      </trkpt>
      <trkpt lat="43.84397" lon="3.57622">
        <ele>425.18368587793</ele>
        <time>2016-04-06T12:09:24Z</time>
      </trkpt>
      <trkpt lat="43.84398" lon="3.57543">
        <ele>426.24115690174</ele>
        <time>2016-04-06T12:10:24Z</time>
      </trkpt>
      <trkpt lat="43.84403" lon="3.57507">
        <ele>427.30536387977</ele>
        <time>2016-04-06T12:10:49Z</time>
      </trkpt>
      <trkpt lat="43.84402" lon="3.57474">
        <ele>428.61846643927</ele>
        <time>2016-04-06T12:11:15Z</time>
      </trkpt>
      <trkpt lat="43.84405" lon="3.57463">
        <ele>428.61846643927</ele>
        <time>2016-04-06T12:11:33Z</time>
      </trkpt>
      <trkpt lat="43.84405" lon="3.57463">
        <ele>430.37536779681</ele>
        <time>2016-04-06T12:11:38Z</time>
      </trkpt>
      <trkpt lat="43.8441" lon="3.57448">
        <ele>432.07814457363</ele>
        <time>2016-04-06T12:12:05Z</time>
      </trkpt>
      <trkpt lat="43.8441" lon="3.57443">
        <ele>432.07814457363</ele>
        <time>2016-04-06T12:12:14Z</time>
      </trkpt>
      <trkpt lat="43.84417" lon="3.57431">
        <ele>433.53947771537</ele>
        <time>2016-04-06T12:12:22Z</time>
      </trkpt>
      <trkpt lat="43.84421" lon="3.57397">
        <ele>434.8171333969</ele>
        <time>2016-04-06T12:12:57Z</time>
      </trkpt>
      <trkpt lat="43.84428" lon="3.57391">
        <ele>434.8171333969</ele>
        <time>2016-04-06T12:12:57Z</time>
      </trkpt>
      <trkpt lat="43.8443" lon="3.57379">
        <ele>436.00845718102</ele>
        <time>2016-04-06T12:13:13Z</time>
      </trkpt>
      <trkpt lat="43.84434" lon="3.57362">
        <ele>437.08867390508</ele>
        <time>2016-04-06T12:13:23Z</time>
      </trkpt>
      <trkpt lat="43.84443" lon="3.57348">
        <ele>438.07845149984</ele>
        <time>2016-04-06T12:13:40Z</time>
      </trkpt>
      <trkpt lat="43.84449" lon="3.57345">
        <ele>438.07845149984</ele>
        <time>2016-04-06T12:13:58Z</time>
      </trkpt>
      <trkpt lat="43.8445" lon="3.57339">
        <ele>438.93962676699</ele>
        <time>2016-04-06T12:14:03Z</time>
      </trkpt>
      <trkpt lat="43.84449" lon="3.57331">
        <ele>438.93962676699</ele>
        <time>2016-04-06T12:14:19Z</time>
      </trkpt>
      <trkpt lat="43.84453" lon="3.57312">
        <ele>439.76697747907</ele>
        <time>2016-04-06T12:14:48Z</time>
      </trkpt>
      <trkpt lat="43.84459" lon="3.57293">
        <ele>440.59084424731</ele>
        <time>2016-04-06T12:14:58Z</time>
      </trkpt>
      <trkpt lat="43.84463" lon="3.57258">
        <ele>441.77087719901</ele>
        <time>2016-04-06T12:16:05Z</time>
      </trkpt>
      <trkpt lat="43.84466" lon="3.57249">
        <ele>441.77087719901</ele>
        <time>2016-04-06T12:16:21Z</time>
      </trkpt>
      <trkpt lat="43.84466" lon="3.57228">
        <ele>442.93323400171</ele>
        <time>2016-04-06T12:16:49Z</time>
      </trkpt>
      <trkpt lat="43.84466" lon="3.57219">
        <ele>442.93323400171</ele>
        <time>2016-04-06T12:17:02Z</time>
      </trkpt>
      <trkpt lat="43.84478" lon="3.57212">
        <ele>444.04869855642</ele>
        <time>2016-04-06T12:17:20Z</time>
      </trkpt>
      <trkpt lat="43.84478" lon="3.57196">
        <ele>445.10481258696</ele>
        <time>2016-04-06T12:17:41Z</time>
      </trkpt>
      <trkpt lat="43.84478" lon="3.57195">
        <ele>445.10481258696</ele>
        <time>2016-04-06T12:17:41Z</time>
      </trkpt>
      <trkpt lat="43.84482" lon="3.5718">
        <ele>446.0614453004</ele>
        <time>2016-04-06T12:18:00Z</time>
      </trkpt>
      <trkpt lat="43.84482" lon="3.57176">
        <ele>446.0614453004</ele>
        <time>2016-04-06T12:18:00Z</time>
      </trkpt>
      <trkpt lat="43.8448" lon="3.57159">
        <ele>446.91058162512</ele>
        <time>2016-04-06T12:18:16Z</time>
      </trkpt>
      <trkpt lat="43.8449" lon="3.57121">
        <ele>447.78927225523</ele>
        <time>2016-04-06T12:18:54Z</time>
      </trkpt>
      <trkpt lat="43.84489" lon="3.57105">
        <ele>448.65154547924</ele>
        <time>2016-04-06T12:19:12Z</time>
      </trkpt>
      <trkpt lat="43.84486" lon="3.57074">
        <ele>449.68548944786</ele>
        <time>2016-04-06T12:19:41Z</time>
      </trkpt>
      <trkpt lat="43.84486" lon="3.57066">
        <ele>449.68548944786</ele>
        <time>2016-04-06T12:20:00Z</time>
      </trkpt>
      <trkpt lat="43.84506" lon="3.57063">
        <ele>450.99289510836</ele>
        <time>2016-04-06T12:20:12Z</time>
      </trkpt>
      <trkpt lat="43.84506" lon="3.57063">
        <ele>450.99289510836</ele>
        <time>2016-04-06T12:20:17Z</time>
      </trkpt>
      <trkpt lat="43.84511" lon="3.57056">
        <ele>450.99289510836</ele>
        <time>2016-04-06T12:20:33Z</time>
      </trkpt>
      <trkpt lat="43.84514" lon="3.57045">
        <ele>452.53766458082</ele>
        <time>2016-04-06T12:20:58Z</time>
      </trkpt>
      <trkpt lat="43.84513" lon="3.57041">
        <ele>452.53766458082</ele>
        <time>2016-04-06T12:21:00Z</time>
      </trkpt>
      <trkpt lat="43.84507" lon="3.57031">
        <ele>454.06957509187</ele>
        <time>2016-04-06T12:21:10Z</time>
      </trkpt>
      <trkpt lat="43.84505" lon="3.5703">
        <ele>454.06957509187</ele>
        <time>2016-04-06T12:21:17Z</time>
      </trkpt>
      <trkpt lat="43.84485" lon="3.57045">
        <ele>455.70274534452</ele>
        <time>2016-04-06T12:21:50Z</time>
      </trkpt>
      <trkpt lat="43.84479" lon="3.57055">
        <ele>455.70274534452</ele>
        <time>2016-04-06T12:22:19Z</time>
      </trkpt>
      <trkpt lat="43.84486" lon="3.5704">
        <ele>458.04707664668</ele>
        <time>2016-04-06T12:22:32Z</time>
      </trkpt>
      <trkpt lat="43.84486" lon="3.57039">
        <ele>458.04707664668</ele>
        <time>2016-04-06T12:22:37Z</time>
      </trkpt>
      <trkpt lat="43.84482" lon="3.57011">
        <ele>461.37751667439</ele>
        <time>2016-04-06T12:23:45Z</time>
      </trkpt>
      <trkpt lat="43.84478" lon="3.56999">
        <ele>464.80764629097</ele>
        <time>2016-04-06T12:24:00Z</time>
      </trkpt>
      <trkpt lat="43.84476" lon="3.56994">
        <ele>464.80764629097</ele>
        <time>2016-04-06T12:24:00Z</time>
      </trkpt>
      <trkpt lat="43.84475" lon="3.56984">
        <ele>468.1788803734</ele>
        <time>2016-04-06T12:24:12Z</time>
      </trkpt>
      <trkpt lat="43.84477" lon="3.56981">
        <ele>468.1788803734</ele>
        <time>2016-04-06T12:24:18Z</time>
      </trkpt>
      <trkpt lat="43.84487" lon="3.56961">
        <ele>472.74242864383</ele>
        <time>2016-04-06T12:25:18Z</time>
      </trkpt>
      <trkpt lat="43.84486" lon="3.56926">
        <ele>477.80973939269</ele>
        <time>2016-04-06T12:25:56Z</time>
      </trkpt>
      <trkpt lat="43.84503" lon="3.56851">
        <ele>484.84559331214</ele>
        <time>2016-04-06T12:27:51Z</time>
      </trkpt>
      <trkpt lat="43.84499" lon="3.56838">
        <ele>491.54139093746</ele>
        <time>2016-04-06T12:27:57Z</time>
      </trkpt>
      <trkpt lat="43.84499" lon="3.56837">
        <ele>491.54139093746</ele>
        <time>2016-04-06T12:27:58Z</time>
      </trkpt>
      <trkpt lat="43.84501" lon="3.5682">
        <ele>498.19475103138</ele>
        <time>2016-04-06T12:28:41Z</time>
      </trkpt>
      <trkpt lat="43.84497" lon="3.56808">
        <ele>504.27475263026</ele>
        <time>2016-04-06T12:28:41Z</time>
      </trkpt>
      <trkpt lat="43.8449" lon="3.56797">
        <ele>510.0118939128</ele>
        <time>2016-04-06T12:28:50Z</time>
      </trkpt>
      <trkpt lat="43.84485" lon="3.56788">
        <ele>510.0118939128</ele>
        <time>2016-04-06T12:28:58Z</time>
      </trkpt>
      <trkpt lat="43.84475" lon="3.56762">
        <ele>515.60656703894</ele>
        <time>2016-04-06T12:29:17Z</time>
      </trkpt>
      <trkpt lat="43.84476" lon="3.56761">
        <ele>515.60656703894</ele>
        <time>2016-04-06T12:29:18Z</time>
      </trkpt>
      <trkpt lat="43.84476" lon="3.56732">
        <ele>520.71192372345</ele>
        <time>2016-04-06T12:29:35Z</time>
      </trkpt>
      <trkpt lat="43.84474" lon="3.56714">
        <ele>525.35413733865</ele>
        <time>2016-04-06T12:29:57Z</time>
      </trkpt>
      <trkpt lat="43.84472" lon="3.56686">
        <ele>529.86170083414</ele>
        <time>2016-04-06T12:30:28Z</time>
      </trkpt>
      <trkpt lat="43.84463" lon="3.56594">
        <ele>535.01523442124</ele>
        <time>2016-04-06T12:31:23Z</time>
      </trkpt>
      <trkpt lat="43.84475" lon="3.56544">
        <ele>540.5565623608</ele>
        <time>2016-04-06T12:32:01Z</time>
      </trkpt>
      <trkpt lat="43.84483" lon="3.56535">
        <ele>545.61161476823</ele>
        <time>2016-04-06T12:32:20Z</time>
      </trkpt>
      <trkpt lat="43.84482" lon="3.56526">
        <ele>545.61161476823</ele>
        <time>2016-04-06T12:32:20Z</time>
      </trkpt>
      <trkpt lat="43.84484" lon="3.56499">
        <ele>550.6692140845</ele>
        <time>2016-04-06T12:32:45Z</time>
      </trkpt>
      <trkpt lat="43.84482" lon="3.56493">
        <ele>550.6692140845</ele>
        <time>2016-04-06T12:32:45Z</time>
      </trkpt>
      <trkpt lat="43.84483" lon="3.56482">
        <ele>555.20263033256</ele>
        <time>2016-04-06T12:32:53Z</time>
      </trkpt>
      <trkpt lat="43.84482" lon="3.56464">
        <ele>559.35970316798</ele>
        <time>2016-04-06T12:33:09Z</time>
      </trkpt>
      <trkpt lat="43.84477" lon="3.56449">
        <ele>563.39406770762</ele>
        <time>2016-04-06T12:33:17Z</time>
      </trkpt>
      <trkpt lat="43.84471" lon="3.5643">
        <ele>568.63662113712</ele>
        <time>2016-04-06T12:34:00Z</time>
      </trkpt>
      <trkpt lat="43.84443" lon="3.56384">
        <ele>573.34871161318</ele>
        <time>2016-04-06T12:34:57Z</time>
      </trkpt>
      <trkpt lat="43.84442" lon="3.56382">
        <ele>573.34871161318</ele>
        <time>2016-04-06T12:34:57Z</time>
      </trkpt>
      <trkpt lat="43.84436" lon="3.56365">
        <ele>577.4775856744</ele>
        <time>2016-04-06T12:35:16Z</time>
      </trkpt>
      <trkpt lat="43.84428" lon="3.5635">
        <ele>581.09157074296</ele>
        <time>2016-04-06T12:35:32Z</time>
      </trkpt>
      <trkpt lat="43.84428" lon="3.56349">
        <ele>581.09157074296</ele>
        <time>2016-04-06T12:35:33Z</time>
      </trkpt>
      <trkpt lat="43.84428" lon="3.56344">
        <ele>581.09157074296</ele>
        <time>2016-04-06T12:35:38Z</time>
      </trkpt>
      <trkpt lat="43.84427" lon="3.5633">
        <ele>584.22686670789</ele>
        <time>2016-04-06T12:35:56Z</time>
      </trkpt>
      <trkpt lat="43.84427" lon="3.56325">
        <ele>584.22686670789</ele>
        <time>2016-04-06T12:35:56Z</time>
      </trkpt>
      <trkpt lat="43.84436" lon="3.56257">
        <ele>587.25006756538</ele>
        <time>2016-04-06T12:37:13Z</time>
      </trkpt>
      <trkpt lat="43.84445" lon="3.56245">
        <ele>589.59348785203</ele>
        <time>2016-04-06T12:37:13Z</time>
      </trkpt>
      <trkpt lat="43.84455" lon="3.56235">
        <ele>591.46823260616</ele>
        <time>2016-04-06T12:37:24Z</time>
      </trkpt>
      <trkpt lat="43.84459" lon="3.56231">
        <ele>591.46823260616</ele>
        <time>2016-04-06T12:37:28Z</time>
      </trkpt>
      <trkpt lat="43.84464" lon="3.56228">
        <ele>593.10022712981</ele>
        <time>2016-04-06T12:37:33Z</time>
      </trkpt>
      <trkpt lat="43.84469" lon="3.56225">
        <ele>593.10022712981</ele>
        <time>2016-04-06T12:37:38Z</time>
      </trkpt>
      <trkpt lat="43.84475" lon="3.56223">
        <ele>594.55553543052</ele>
        <time>2016-04-06T12:37:43Z</time>
      </trkpt>
      <trkpt lat="43.84516" lon="3.56203">
        <ele>595.5933683809</ele>
        <time>2016-04-06T12:38:23Z</time>
      </trkpt>
      <trkpt lat="43.84509" lon="3.5607">
        <ele>596.71246197272</ele>
        <time>2016-04-06T12:40:27Z</time>
      </trkpt>
      <trkpt lat="43.84494" lon="3.5599">
        <ele>597.10659036449</ele>
        <time>2016-04-06T12:41:25Z</time>
      </trkpt>
      <trkpt lat="43.84498" lon="3.55989">
        <ele>597.10659036449</ele>
        <time>2016-04-06T12:41:25Z</time>
      </trkpt>
      <trkpt lat="43.84508" lon="3.5586">
        <ele>596.04524755484</ele>
        <time>2016-04-06T12:42:58Z</time>
      </trkpt>
      <trkpt lat="43.8451" lon="3.55835">
        <ele>594.78677973869</ele>
        <time>2016-04-06T12:43:25Z</time>
      </trkpt>
      <trkpt lat="43.84509" lon="3.55801">
        <ele>593.44561884152</ele>
        <time>2016-04-06T12:43:39Z</time>
      </trkpt>
      <trkpt lat="43.84509" lon="3.55782">
        <ele>591.85415561565</ele>
        <time>2016-04-06T12:43:51Z</time>
      </trkpt>
      <trkpt lat="43.8451" lon="3.55781">
        <ele>591.85415561565</ele>
        <time>2016-04-06T12:43:59Z</time>
      </trkpt>
      <trkpt lat="43.8451" lon="3.5577">
        <ele>591.85415561565</ele>
        <time>2016-04-06T12:43:59Z</time>
      </trkpt>
      <trkpt lat="43.84544" lon="3.55708">
        <ele>589.80005704954</ele>
        <time>2016-04-06T12:44:47Z</time>
      </trkpt>
      <trkpt lat="43.84549" lon="3.55705">
        <ele>589.80005704954</ele>
        <time>2016-04-06T12:44:48Z</time>
      </trkpt>
      <trkpt lat="43.84569" lon="3.55671">
        <ele>587.50567734728</ele>
        <time>2016-04-06T12:45:15Z</time>
      </trkpt>
      <trkpt lat="43.84584" lon="3.55546">
        <ele>584.81726572458</ele>
        <time>2016-04-06T12:46:48Z</time>
      </trkpt>
      <trkpt lat="43.84585" lon="3.55543">
        <ele>584.81726572458</ele>
        <time>2016-04-06T12:46:50Z</time>
      </trkpt>
      <trkpt lat="43.84565" lon="3.55472">
        <ele>582.64528122411</ele>
        <time>2016-04-06T12:47:38Z</time>
      </trkpt>
      <trkpt lat="43.84541" lon="3.55428">
        <ele>581.73074285739</ele>
        <time>2016-04-06T12:48:28Z</time>
      </trkpt>
      <trkpt lat="43.84541" lon="3.55427">
        <ele>581.73074285739</ele>
        <time>2016-04-06T12:48:33Z</time>
      </trkpt>
      <trkpt lat="43.8454" lon="3.55428">
        <ele>581.73074285739</ele>
        <time>2016-04-06T12:49:40Z</time>
      </trkpt>
      <trkpt lat="43.84521" lon="3.55426">
        <ele>581.30092812</ele>
        <time>2016-04-06T12:50:07Z</time>
      </trkpt>
      <trkpt lat="43.8452" lon="3.55427">
        <ele>581.30092812</ele>
        <time>2016-04-06T12:50:08Z</time>
      </trkpt>
      <trkpt lat="43.84518" lon="3.55425">
        <ele>581.30092812</ele>
        <time>2016-04-06T12:50:16Z</time>
      </trkpt>
      <trkpt lat="43.84489" lon="3.55402">
        <ele>580.68147675387</ele>
        <time>2016-04-06T12:50:44Z</time>
      </trkpt>
      <trkpt lat="43.84488" lon="3.55404">
        <ele>580.68147675387</ele>
        <time>2016-04-06T12:50:48Z</time>
      </trkpt>
      <trkpt lat="43.84486" lon="3.55405">
        <ele>580.68147675387</ele>
        <time>2016-04-06T12:50:58Z</time>
      </trkpt>
      <trkpt lat="43.84485" lon="3.55407">
        <ele>580.68147675387</ele>
        <time>2016-04-06T12:51:03Z</time>
      </trkpt>
      <trkpt lat="43.84484" lon="3.55411">
        <ele>579.79543307231</ele>
        <time>2016-04-06T12:51:08Z</time>
      </trkpt>
      <trkpt lat="43.84482" lon="3.5543">
        <ele>578.78811183832</ele>
        <time>2016-04-06T12:51:23Z</time>
      </trkpt>
      <trkpt lat="43.84482" lon="3.55436">
        <ele>578.78811183832</ele>
        <time>2016-04-06T12:51:38Z</time>
      </trkpt>
      <trkpt lat="43.84449" lon="3.55442">
        <ele>577.62125417757</ele>
        <time>2016-04-06T12:53:05Z</time>
      </trkpt>
      <trkpt lat="43.84345" lon="3.55403">
        <ele>576.40365648071</ele>
        <time>2016-04-06T12:54:35Z</time>
      </trkpt>
      <trkpt lat="43.84318" lon="3.55405">
        <ele>575.25035503838</ele>
        <time>2016-04-06T12:55:00Z</time>
      </trkpt>
      <trkpt lat="43.8428" lon="3.55406">
        <ele>574.1377273845</ele>
        <time>2016-04-06T12:55:34Z</time>
      </trkpt>
      <trkpt lat="43.84277" lon="3.55404">
        <ele>574.1377273845</ele>
        <time>2016-04-06T12:55:41Z</time>
      </trkpt>
      <trkpt lat="43.84264" lon="3.55404">
        <ele>573.08667281082</ele>
        <time>2016-04-06T12:56:10Z</time>
      </trkpt>
      <trkpt lat="43.8426" lon="3.55399">
        <ele>573.08667281082</ele>
        <time>2016-04-06T12:56:10Z</time>
      </trkpt>
      <trkpt lat="43.84233" lon="3.55387">
        <ele>571.75576810892</ele>
        <time>2016-04-06T13:36:09Z</time>
      </trkpt>
      <trkpt lat="43.84236" lon="3.55389">
        <ele>571.75576810892</ele>
        <time>2016-04-06T13:36:22Z</time>
      </trkpt>
      <trkpt lat="43.84243" lon="3.55396">
        <ele>570.46320588518</ele>
        <time>2016-04-06T13:36:33Z</time>
      </trkpt>
      <trkpt lat="43.84248" lon="3.55396">
        <ele>570.46320588518</ele>
        <time>2016-04-06T13:36:38Z</time>
      </trkpt>
      <trkpt lat="43.8425" lon="3.55396">
        <ele>570.46320588518</ele>
        <time>2016-04-06T13:36:43Z</time>
      </trkpt>
      <trkpt lat="43.84254" lon="3.55397">
        <ele>569.40247874836</ele>
        <time>2016-04-06T13:36:48Z</time>
      </trkpt>
      <trkpt lat="43.84269" lon="3.55402">
        <ele>568.46365238165</ele>
        <time>2016-04-06T13:37:04Z</time>
      </trkpt>
      <trkpt lat="43.84278" lon="3.55404">
        <ele>567.63065409177</ele>
        <time>2016-04-06T13:37:25Z</time>
      </trkpt>
      <trkpt lat="43.84278" lon="3.5541">
        <ele>567.63065409177</ele>
        <time>2016-04-06T13:37:26Z</time>
      </trkpt>
      <trkpt lat="43.84282" lon="3.55428">
        <ele>566.93119312829</ele>
        <time>2016-04-06T13:37:33Z</time>
      </trkpt>
      <trkpt lat="43.84281" lon="3.55432">
        <ele>566.93119312829</ele>
        <time>2016-04-06T13:37:46Z</time>
      </trkpt>
      <trkpt lat="43.84276" lon="3.5544">
        <ele>566.44788354276</ele>
        <time>2016-04-06T13:37:46Z</time>
      </trkpt>
      <trkpt lat="43.84272" lon="3.55451">
        <ele>566.44788354276</ele>
        <time>2016-04-06T13:38:00Z</time>
      </trkpt>
      <trkpt lat="43.84267" lon="3.55478">
        <ele>565.79518584037</ele>
        <time>2016-04-06T13:38:14Z</time>
      </trkpt>
      <trkpt lat="43.84265" lon="3.55487">
        <ele>565.79518584037</ele>
        <time>2016-04-06T13:38:21Z</time>
      </trkpt>
      <trkpt lat="43.84262" lon="3.55491">
        <ele>565.19248726363</ele>
        <time>2016-04-06T13:38:28Z</time>
      </trkpt>
      <trkpt lat="43.84257" lon="3.55499">
        <ele>565.19248726363</ele>
        <time>2016-04-06T13:38:36Z</time>
      </trkpt>
      <trkpt lat="43.84252" lon="3.55508">
        <ele>564.69850185794</ele>
        <time>2016-04-06T13:39:00Z</time>
      </trkpt>
      <trkpt lat="43.84243" lon="3.55525">
        <ele>564.29497381782</ele>
        <time>2016-04-06T13:40:00Z</time>
      </trkpt>
      <trkpt lat="43.84196" lon="3.55533">
        <ele>563.86357047803</ele>
        <time>2016-04-06T13:40:35Z</time>
      </trkpt>
      <trkpt lat="43.84189" lon="3.55537">
        <ele>563.86357047803</ele>
        <time>2016-04-06T13:40:35Z</time>
      </trkpt>
      <trkpt lat="43.84163" lon="3.55537">
        <ele>563.28004269446</ele>
        <time>2016-04-06T13:41:13Z</time>
      </trkpt>
      <trkpt lat="43.8415" lon="3.55541">
        <ele>562.84735204763</ele>
        <time>2016-04-06T13:41:13Z</time>
      </trkpt>
      <trkpt lat="43.8414" lon="3.55542">
        <ele>562.38437061442</ele>
        <time>2016-04-06T13:41:38Z</time>
      </trkpt>
      <trkpt lat="43.84124" lon="3.55529">
        <ele>561.95369400932</ele>
        <time>2016-04-06T13:41:40Z</time>
      </trkpt>
      <trkpt lat="43.84117" lon="3.55523">
        <ele>561.95369400932</ele>
        <time>2016-04-06T13:41:49Z</time>
      </trkpt>
      <trkpt lat="43.84101" lon="3.55508">
        <ele>561.29594958766</ele>
        <time>2016-04-06T13:42:12Z</time>
      </trkpt>
      <trkpt lat="43.84067" lon="3.55466">
        <ele>560.24328500008</ele>
        <time>2016-04-06T13:42:38Z</time>
      </trkpt>
      <trkpt lat="43.84053" lon="3.55449">
        <ele>559.21751336779</ele>
        <time>2016-04-06T13:42:57Z</time>
      </trkpt>
      <trkpt lat="43.84052" lon="3.55448">
        <ele>559.21751336779</ele>
        <time>2016-04-06T13:42:57Z</time>
      </trkpt>
      <trkpt lat="43.84051" lon="3.55447">
        <ele>559.21751336779</ele>
        <time>2016-04-06T13:42:58Z</time>
      </trkpt>
      <trkpt lat="43.83996" lon="3.55408">
        <ele>557.29776274612</ele>
        <time>2016-04-06T13:43:50Z</time>
      </trkpt>
      <trkpt lat="43.83993" lon="3.55407">
        <ele>557.29776274612</ele>
        <time>2016-04-06T13:44:00Z</time>
      </trkpt>
      <trkpt lat="43.83973" lon="3.55393">
        <ele>555.39126368082</ele>
        <time>2016-04-06T13:44:15Z</time>
      </trkpt>
      <trkpt lat="43.83965" lon="3.55393">
        <ele>555.39126368082</ele>
        <time>2016-04-06T13:44:15Z</time>
      </trkpt>
      <trkpt lat="43.8388" lon="3.55319">
        <ele>552.65225609028</ele>
        <time>2016-04-06T13:45:51Z</time>
      </trkpt>
      <trkpt lat="43.83874" lon="3.55313">
        <ele>552.65225609028</ele>
        <time>2016-04-06T13:45:53Z</time>
      </trkpt>
      <trkpt lat="43.83857" lon="3.55297">
        <ele>549.58182291624</ele>
        <time>2016-04-06T13:46:12Z</time>
      </trkpt>
      <trkpt lat="43.83855" lon="3.55297">
        <ele>549.58182291624</ele>
        <time>2016-04-06T13:46:12Z</time>
      </trkpt>
      <trkpt lat="43.8383" lon="3.55278">
        <ele>546.39996243035</ele>
        <time>2016-04-06T13:46:44Z</time>
      </trkpt>
      <trkpt lat="43.83825" lon="3.55271">
        <ele>546.39996243035</ele>
        <time>2016-04-06T13:46:44Z</time>
      </trkpt>
      <trkpt lat="43.83818" lon="3.55261">
        <ele>543.22413492531</ele>
        <time>2016-04-06T13:46:52Z</time>
      </trkpt>
      <trkpt lat="43.83755" lon="3.55193">
        <ele>539.24061184331</ele>
        <time>2016-04-06T13:47:56Z</time>
      </trkpt>
      <trkpt lat="43.83686" lon="3.55185">
        <ele>535.49885524572</ele>
        <time>2016-04-06T13:48:56Z</time>
      </trkpt>
      <trkpt lat="43.83676" lon="3.55184">
        <ele>532.01917307006</ele>
        <time>2016-04-06T13:48:59Z</time>
      </trkpt>
      <trkpt lat="43.83656" lon="3.55176">
        <ele>528.93467866386</ele>
        <time>2016-04-06T13:49:16Z</time>
      </trkpt>
      <trkpt lat="43.83637" lon="3.55168">
        <ele>526.1799924598</ele>
        <time>2016-04-06T13:49:32Z</time>
      </trkpt>
      <trkpt lat="43.83636" lon="3.55167">
        <ele>526.1799924598</ele>
        <time>2016-04-06T13:49:37Z</time>
      </trkpt>
      <trkpt lat="43.83611" lon="3.55156">
        <ele>523.62129426348</ele>
        <time>2016-04-06T13:49:57Z</time>
      </trkpt>
      <trkpt lat="43.83579" lon="3.55141">
        <ele>521.13378371996</ele>
        <time>2016-04-06T13:50:29Z</time>
      </trkpt>
      <trkpt lat="43.83559" lon="3.55134">
        <ele>518.86077250539</ele>
        <time>2016-04-06T13:50:46Z</time>
      </trkpt>
      <trkpt lat="43.83551" lon="3.55132">
        <ele>518.86077250539</ele>
        <time>2016-04-06T13:50:46Z</time>
      </trkpt>
      <trkpt lat="43.83529" lon="3.55126">
        <ele>517.03507171859</ele>
        <time>2016-04-06T13:51:03Z</time>
      </trkpt>
      <trkpt lat="43.83483" lon="3.55019">
        <ele>515.59708456703</ele>
        <time>2016-04-06T13:52:40Z</time>
      </trkpt>
      <trkpt lat="43.83483" lon="3.55017">
        <ele>515.59708456703</ele>
        <time>2016-04-06T13:52:43Z</time>
      </trkpt>
      <trkpt lat="43.83481" lon="3.55012">
        <ele>515.59708456703</ele>
        <time>2016-04-06T13:52:59Z</time>
      </trkpt>
      <trkpt lat="43.83481" lon="3.54983">
        <ele>515.35494533088</ele>
        <time>2016-04-06T13:53:26Z</time>
      </trkpt>
      <trkpt lat="43.83481" lon="3.54979">
        <ele>515.35494533088</ele>
        <time>2016-04-06T13:53:29Z</time>
      </trkpt>
      <trkpt lat="43.83478" lon="3.549">
        <ele>515.26688079169</ele>
        <time>2016-04-06T13:54:23Z</time>
      </trkpt>
      <trkpt lat="43.83395" lon="3.54652">
        <ele>517.49424098417</ele>
        <time>2016-04-06T13:57:17Z</time>
      </trkpt>
      <trkpt lat="43.83386" lon="3.54619">
        <ele>520.04107475998</ele>
        <time>2016-04-06T13:57:42Z</time>
      </trkpt>
      <trkpt lat="43.83359" lon="3.54601">
        <ele>522.72872628196</ele>
        <time>2016-04-06T13:57:55Z</time>
      </trkpt>
      <trkpt lat="43.83355" lon="3.54596">
        <ele>522.72872628196</ele>
        <time>2016-04-06T13:57:59Z</time>
      </trkpt>
      <trkpt lat="43.83349" lon="3.54594">
        <ele>525.27589889363</ele>
        <time>2016-04-06T13:58:03Z</time>
      </trkpt>
      <trkpt lat="43.83342" lon="3.54588">
        <ele>525.27589889363</ele>
        <time>2016-04-06T13:58:11Z</time>
      </trkpt>
      <trkpt lat="43.8334" lon="3.54585">
        <ele>527.66730160093</ele>
        <time>2016-04-06T13:58:15Z</time>
      </trkpt>
      <trkpt lat="43.83317" lon="3.54574">
        <ele>530.004488044</ele>
        <time>2016-04-06T13:58:33Z</time>
      </trkpt>
      <trkpt lat="43.83298" lon="3.54563">
        <ele>532.35291059965</ele>
        <time>2016-04-06T13:58:50Z</time>
      </trkpt>
      <trkpt lat="43.83278" lon="3.54541">
        <ele>534.44178510012</ele>
        <time>2016-04-06T13:59:11Z</time>
      </trkpt>
      <trkpt lat="43.83276" lon="3.54539">
        <ele>534.44178510012</ele>
        <time>2016-04-06T13:59:11Z</time>
      </trkpt>
      <trkpt lat="43.8324" lon="3.54518">
        <ele>536.52542166709</ele>
        <time>2016-04-06T13:59:51Z</time>
      </trkpt>
      <trkpt lat="43.83231" lon="3.54514">
        <ele>538.46488362551</ele>
        <time>2016-04-06T13:59:51Z</time>
      </trkpt>
      <trkpt lat="43.83202" lon="3.54497">
        <ele>540.24726336298</ele>
        <time>2016-04-06T14:00:24Z</time>
      </trkpt>
      <trkpt lat="43.83129" lon="3.54365">
        <ele>542.01971148546</ele>
        <time>2016-04-06T14:02:28Z</time>
      </trkpt>
      <trkpt lat="43.83128" lon="3.54359">
        <ele>542.01971148546</ele>
        <time>2016-04-06T14:02:28Z</time>
      </trkpt>
      <trkpt lat="43.831" lon="3.54316">
        <ele>544.13492649391</ele>
        <time>2016-04-06T14:03:06Z</time>
      </trkpt>
      <trkpt lat="43.83095" lon="3.54309">
        <ele>544.13492649391</ele>
        <time>2016-04-06T14:03:06Z</time>
      </trkpt>
      <trkpt lat="43.83086" lon="3.543">
        <ele>546.12630157925</ele>
        <time>2016-04-06T14:03:14Z</time>
      </trkpt>
      <trkpt lat="43.83068" lon="3.54289">
        <ele>548.08084335911</ele>
        <time>2016-04-06T14:03:33Z</time>
      </trkpt>
      <trkpt lat="43.8306" lon="3.54287">
        <ele>548.08084335911</ele>
        <time>2016-04-06T14:03:39Z</time>
      </trkpt>
      <trkpt lat="43.83018" lon="3.54267">
        <ele>550.09388200865</ele>
        <time>2016-04-06T14:04:38Z</time>
      </trkpt>
      <trkpt lat="43.83012" lon="3.54253">
        <ele>551.86469085439</ele>
        <time>2016-04-06T14:04:38Z</time>
      </trkpt>
      <trkpt lat="43.82975" lon="3.54142">
        <ele>553.11553125812</ele>
        <time>2016-04-06T14:06:16Z</time>
      </trkpt>
      <trkpt lat="43.82933" lon="3.54155">
        <ele>554.29689234635</ele>
        <time>2016-04-06T14:06:38Z</time>
      </trkpt>
      <trkpt lat="43.82926" lon="3.54178">
        <ele>555.68247852111</ele>
        <time>2016-04-06T14:06:56Z</time>
      </trkpt>
      <trkpt lat="43.82926" lon="3.54179">
        <ele>555.68247852111</ele>
        <time>2016-04-06T14:06:58Z</time>
      </trkpt>
      <trkpt lat="43.82851" lon="3.54155">
        <ele>557.49671805977</ele>
        <time>2016-04-06T14:08:15Z</time>
      </trkpt>
      <trkpt lat="43.82837" lon="3.54159">
        <ele>559.4421870813</ele>
        <time>2016-04-06T14:08:28Z</time>
      </trkpt>
      <trkpt lat="43.82815" lon="3.54163">
        <ele>562.30959342788</ele>
        <time>2016-04-06T14:09:33Z</time>
      </trkpt>
      <trkpt lat="43.82717" lon="3.54168">
        <ele>564.52342712802</ele>
        <time>2016-04-06T14:10:59Z</time>
      </trkpt>
      <trkpt lat="43.82712" lon="3.54166">
        <ele>564.52342712802</ele>
        <time>2016-04-06T14:11:03Z</time>
      </trkpt>
      <trkpt lat="43.82674" lon="3.54108">
        <ele>565.93739436889</ele>
        <time>2016-04-06T14:12:00Z</time>
      </trkpt>
      <trkpt lat="43.82669" lon="3.541">
        <ele>565.93739436889</ele>
        <time>2016-04-06T14:12:00Z</time>
      </trkpt>
      <trkpt lat="43.82576" lon="3.53974">
        <ele>566.40401575059</ele>
        <time>2016-04-06T14:13:50Z</time>
      </trkpt>
      <trkpt lat="43.82576" lon="3.53971">
        <ele>566.40401575059</ele>
        <time>2016-04-06T14:14:00Z</time>
      </trkpt>
      <trkpt lat="43.82572" lon="3.53944">
        <ele>566.48126743288</ele>
        <time>2016-04-06T14:14:17Z</time>
      </trkpt>
      <trkpt lat="43.82538" lon="3.53936">
        <ele>566.26952731005</ele>
        <time>2016-04-06T14:14:38Z</time>
      </trkpt>
      <trkpt lat="43.82533" lon="3.53933">
        <ele>566.26952731005</ele>
        <time>2016-04-06T14:14:42Z</time>
      </trkpt>
      <trkpt lat="43.82512" lon="3.53927">
        <ele>565.96369409962</ele>
        <time>2016-04-06T14:14:58Z</time>
      </trkpt>
      <trkpt lat="43.82506" lon="3.53924">
        <ele>565.96369409962</ele>
        <time>2016-04-06T14:15:07Z</time>
      </trkpt>
      <trkpt lat="43.8247" lon="3.5389">
        <ele>565.28364622147</ele>
        <time>2016-04-06T14:15:59Z</time>
      </trkpt>
      <trkpt lat="43.82443" lon="3.53886">
        <ele>564.57632649296</ele>
        <time>2016-04-06T14:15:59Z</time>
      </trkpt>
      <trkpt lat="43.82389" lon="3.5382">
        <ele>563.84637459948</ele>
        <time>2016-04-06T14:17:28Z</time>
      </trkpt>
      <trkpt lat="43.82358" lon="3.53677">
        <ele>564.10706494671</ele>
        <time>2016-04-06T14:18:57Z</time>
      </trkpt>
      <trkpt lat="43.82358" lon="3.53676">
        <ele>564.10706494671</ele>
        <time>2016-04-06T14:18:58Z</time>
      </trkpt>
      <trkpt lat="43.82356" lon="3.53661">
        <ele>564.53642068885</ele>
        <time>2016-04-06T14:19:17Z</time>
      </trkpt>
      <trkpt lat="43.82331" lon="3.53543">
        <ele>565.28038088627</ele>
        <time>2016-04-06T14:20:40Z</time>
      </trkpt>
      <trkpt lat="43.8233" lon="3.53539">
        <ele>565.28038088627</ele>
        <time>2016-04-06T14:20:40Z</time>
      </trkpt>
      <trkpt lat="43.82324" lon="3.53527">
        <ele>565.9113459755</ele>
        <time>2016-04-06T14:21:00Z</time>
      </trkpt>
      <trkpt lat="43.82322" lon="3.53518">
        <ele>565.9113459755</ele>
        <time>2016-04-06T14:21:00Z</time>
      </trkpt>
      <trkpt lat="43.82315" lon="3.53487">
        <ele>566.94143756244</ele>
        <time>2016-04-06T14:21:18Z</time>
      </trkpt>
      <trkpt lat="43.82305" lon="3.53467">
        <ele>568.23885945884</ele>
        <time>2016-04-06T14:21:45Z</time>
      </trkpt>
      <trkpt lat="43.82272" lon="3.53397">
        <ele>569.50790037883</ele>
        <time>2016-04-06T14:22:39Z</time>
      </trkpt>
      <trkpt lat="43.82274" lon="3.5339">
        <ele>569.50790037883</ele>
        <time>2016-04-06T14:22:58Z</time>
      </trkpt>
      <trkpt lat="43.82275" lon="3.53344">
        <ele>570.37385820404</ele>
        <time>2016-04-06T14:23:51Z</time>
      </trkpt>
      <trkpt lat="43.82269" lon="3.53334">
        <ele>571.09603660839</ele>
        <time>2016-04-06T14:23:51Z</time>
      </trkpt>
      <trkpt lat="43.82251" lon="3.53291">
        <ele>571.28108429099</ele>
        <time>2016-04-06T14:24:33Z</time>
      </trkpt>
      <trkpt lat="43.8225" lon="3.53285">
        <ele>571.28108429099</ele>
        <time>2016-04-06T14:24:33Z</time>
      </trkpt>
      <trkpt lat="43.82234" lon="3.5328">
        <ele>571.63254870651</ele>
        <time>2016-04-06T14:25:09Z</time>
      </trkpt>
      <trkpt lat="43.82193" lon="3.53311">
        <ele>571.74988361599</ele>
        <time>2016-04-06T14:26:00Z</time>
      </trkpt>
      <trkpt lat="43.82118" lon="3.53327">
        <ele>571.56531524732</ele>
        <time>2016-04-06T14:26:56Z</time>
      </trkpt>
      <trkpt lat="43.82116" lon="3.53327">
        <ele>571.56531524732</ele>
        <time>2016-04-06T14:26:58Z</time>
      </trkpt>
      <trkpt lat="43.82098" lon="3.53328">
        <ele>571.31957770503</ele>
        <time>2016-04-06T14:27:30Z</time>
      </trkpt>
      <trkpt lat="43.82038" lon="3.53326">
        <ele>570.55860818743</ele>
        <time>2016-04-06T14:28:49Z</time>
      </trkpt>
      <trkpt lat="43.82024" lon="3.53331">
        <ele>569.84312688433</ele>
        <time>2016-04-06T14:29:31Z</time>
      </trkpt>
      <trkpt lat="43.82021" lon="3.53332">
        <ele>569.84312688433</ele>
        <time>2016-04-06T14:29:31Z</time>
      </trkpt>
      <trkpt lat="43.82019" lon="3.53333">
        <ele>569.84312688433</ele>
        <time>2016-04-06T14:30:00Z</time>
      </trkpt>
      <trkpt lat="43.8199" lon="3.53341">
        <ele>569.01522762832</ele>
        <time>2016-04-06T14:30:15Z</time>
      </trkpt>
      <trkpt lat="43.81959" lon="3.53367">
        <ele>567.88568651002</ele>
        <time>2016-04-06T14:30:53Z</time>
      </trkpt>
      <trkpt lat="43.81899" lon="3.53449">
        <ele>566.46735706564</ele>
        <time>2016-04-06T14:31:54Z</time>
      </trkpt>
      <trkpt lat="43.81893" lon="3.53459">
        <ele>565.08997570423</ele>
        <time>2016-04-06T14:32:00Z</time>
      </trkpt>
      <trkpt lat="43.8184" lon="3.53534">
        <ele>563.59774396063</ele>
        <time>2016-04-06T14:33:03Z</time>
      </trkpt>
      <trkpt lat="43.81836" lon="3.53539">
        <ele>563.59774396063</ele>
        <time>2016-04-06T14:33:04Z</time>
      </trkpt>
      <trkpt lat="43.81828" lon="3.53597">
        <ele>562.32214138198</ele>
        <time>2016-04-06T14:33:45Z</time>
      </trkpt>
      <trkpt lat="43.81855" lon="3.53696">
        <ele>561.09405396399</ele>
        <time>2016-04-06T14:34:43Z</time>
      </trkpt>
      <trkpt lat="43.81859" lon="3.53699">
        <ele>561.09405396399</ele>
        <time>2016-04-06T14:34:58Z</time>
      </trkpt>
      <trkpt lat="43.81863" lon="3.53706">
        <ele>559.69893267658</ele>
        <time>2016-04-06T14:35:03Z</time>
      </trkpt>
      <trkpt lat="43.81883" lon="3.53722">
        <ele>558.54363444576</ele>
        <time>2016-04-06T14:35:32Z</time>
      </trkpt>
      <trkpt lat="43.81889" lon="3.5373">
        <ele>558.54363444576</ele>
        <time>2016-04-06T14:35:32Z</time>
      </trkpt>
      <trkpt lat="43.8189" lon="3.53732">
        <ele>557.52879068544</ele>
        <time>2016-04-06T14:35:33Z</time>
      </trkpt>
      <trkpt lat="43.81957" lon="3.53795">
        <ele>556.97975621725</ele>
        <time>2016-04-06T14:36:43Z</time>
      </trkpt>
      <trkpt lat="43.8199" lon="3.53835">
        <ele>557.58567224435</ele>
        <time>2016-04-06T14:37:13Z</time>
      </trkpt>
      <trkpt lat="43.82008" lon="3.53841">
        <ele>558.3964884035</ele>
        <time>2016-04-06T14:37:37Z</time>
      </trkpt>
      <trkpt lat="43.82043" lon="3.53859">
        <ele>559.68416073906</ele>
        <time>2016-04-06T14:38:00Z</time>
      </trkpt>
      <trkpt lat="43.82061" lon="3.53875">
        <ele>561.25249783448</ele>
        <time>2016-04-06T14:38:19Z</time>
      </trkpt>
      <trkpt lat="43.8207" lon="3.53884">
        <ele>562.86121488377</ele>
        <time>2016-04-06T14:38:19Z</time>
      </trkpt>
      <trkpt lat="43.82081" lon="3.53897">
        <ele>564.48926171686</ele>
        <time>2016-04-06T14:38:47Z</time>
      </trkpt>
      <trkpt lat="43.82097" lon="3.53918">
        <ele>565.79999140164</ele>
        <time>2016-04-06T14:39:00Z</time>
      </trkpt>
      <trkpt lat="43.82101" lon="3.5392">
        <ele>565.79999140164</ele>
        <time>2016-04-06T14:39:03Z</time>
      </trkpt>
      <trkpt lat="43.82149" lon="3.53983">
        <ele>566.87144618431</ele>
        <time>2016-04-06T14:40:00Z</time>
      </trkpt>
      <trkpt lat="43.82164" lon="3.53999">
        <ele>567.83423134135</ele>
        <time>2016-04-06T14:40:14Z</time>
      </trkpt>
      <trkpt lat="43.82173" lon="3.5401">
        <ele>568.73759663519</ele>
        <time>2016-04-06T14:40:22Z</time>
      </trkpt>
      <trkpt lat="43.82198" lon="3.54043">
        <ele>569.38234789752</ele>
        <time>2016-04-06T14:40:55Z</time>
      </trkpt>
      <trkpt lat="43.82205" lon="3.5405">
        <ele>569.38234789752</ele>
        <time>2016-04-06T14:40:55Z</time>
      </trkpt>
      <trkpt lat="43.82207" lon="3.54053">
        <ele>569.97375070879</ele>
        <time>2016-04-06T14:41:13Z</time>
      </trkpt>
      <trkpt lat="43.82218" lon="3.54081">
        <ele>570.57244693807</ele>
        <time>2016-04-06T14:41:14Z</time>
      </trkpt>
      <trkpt lat="43.82286" lon="3.54233">
        <ele>570.88874428867</ele>
        <time>2016-04-06T14:42:44Z</time>
      </trkpt>
      <trkpt lat="43.82283" lon="3.54235">
        <ele>570.88874428867</ele>
        <time>2016-04-06T14:42:48Z</time>
      </trkpt>
      <trkpt lat="43.82277" lon="3.54232">
        <ele>568.60864944283</ele>
        <time>2016-04-06T14:43:13Z</time>
      </trkpt>
      <trkpt lat="43.82274" lon="3.54226">
        <ele>568.60864944283</ele>
        <time>2016-04-06T14:43:18Z</time>
      </trkpt>
      <trkpt lat="43.8227" lon="3.54218">
        <ele>566.09170300201</ele>
        <time>2016-04-06T14:43:23Z</time>
      </trkpt>
      <trkpt lat="43.82267" lon="3.54208">
        <ele>566.09170300201</ele>
        <time>2016-04-06T14:43:28Z</time>
      </trkpt>
      <trkpt lat="43.82265" lon="3.542">
        <ele>563.57926303512</ele>
        <time>2016-04-06T14:43:33Z</time>
      </trkpt>
      <trkpt lat="43.82262" lon="3.54192">
        <ele>563.57926303512</ele>
        <time>2016-04-06T14:43:38Z</time>
      </trkpt>
      <trkpt lat="43.82258" lon="3.54184">
        <ele>561.22285583277</ele>
        <time>2016-04-06T14:43:43Z</time>
      </trkpt>
      <trkpt lat="43.82255" lon="3.54176">
        <ele>561.22285583277</ele>
        <time>2016-04-06T14:43:48Z</time>
      </trkpt>
      <trkpt lat="43.82252" lon="3.54169">
        <ele>559.06150782955</ele>
        <time>2016-04-06T14:43:53Z</time>
      </trkpt>
      <trkpt lat="43.82248" lon="3.54162">
        <ele>559.06150782955</ele>
        <time>2016-04-06T14:43:58Z</time>
      </trkpt>
      <trkpt lat="43.82245" lon="3.54156">
        <ele>557.10193841056</ele>
        <time>2016-04-06T14:44:03Z</time>
      </trkpt>
      <trkpt lat="43.82244" lon="3.54156">
        <ele>557.10193841056</ele>
        <time>2016-04-06T14:44:08Z</time>
      </trkpt>
      <trkpt lat="43.82241" lon="3.54152">
        <ele>557.10193841056</ele>
        <time>2016-04-06T14:44:13Z</time>
      </trkpt>
      <trkpt lat="43.82239" lon="3.54145">
        <ele>555.16237713603</ele>
        <time>2016-04-06T14:44:18Z</time>
      </trkpt>
      <trkpt lat="43.82235" lon="3.54137">
        <ele>555.16237713603</ele>
        <time>2016-04-06T14:44:23Z</time>
      </trkpt>
      <trkpt lat="43.82209" lon="3.5409">
        <ele>553.65069747805</ele>
        <time>2016-04-06T14:44:53Z</time>
      </trkpt>
      <trkpt lat="43.82126" lon="3.53959">
        <ele>553.27496146544</ele>
        <time>2016-04-06T14:46:35Z</time>
      </trkpt>
      <trkpt lat="43.82119" lon="3.53952">
        <ele>553.27496146544</ele>
        <time>2016-04-06T14:46:35Z</time>
      </trkpt>
      <trkpt lat="43.82112" lon="3.53942">
        <ele>553.04505527608</ele>
        <time>2016-04-06T14:46:53Z</time>
      </trkpt>
      <trkpt lat="43.82105" lon="3.53933">
        <ele>552.96539339572</ele>
        <time>2016-04-06T14:46:53Z</time>
      </trkpt>
      <trkpt lat="43.82098" lon="3.53925">
        <ele>553.06836429627</ele>
        <time>2016-04-06T14:47:18Z</time>
      </trkpt>
      <trkpt lat="43.82097" lon="3.53924">
        <ele>553.06836429627</ele>
        <time>2016-04-06T14:47:26Z</time>
      </trkpt>
      <trkpt lat="43.82086" lon="3.53912">
        <ele>553.15279158662</ele>
        <time>2016-04-06T14:47:38Z</time>
      </trkpt>
      <trkpt lat="43.82072" lon="3.53897">
        <ele>553.20517478073</ele>
        <time>2016-04-06T14:47:59Z</time>
      </trkpt>
      <trkpt lat="43.82025" lon="3.53851">
        <ele>553.16978148458</ele>
        <time>2016-04-06T14:48:35Z</time>
      </trkpt>
      <trkpt lat="43.82024" lon="3.5385">
        <ele>553.16978148458</ele>
        <time>2016-04-06T14:48:35Z</time>
      </trkpt>
      <trkpt lat="43.82001" lon="3.53841">
        <ele>552.99514649499</ele>
        <time>2016-04-06T14:49:01Z</time>
      </trkpt>
      <trkpt lat="43.8193" lon="3.53774">
        <ele>551.58189533784</ele>
        <time>2016-04-06T14:50:04Z</time>
      </trkpt>
      <trkpt lat="43.81927" lon="3.53773">
        <ele>551.58189533784</ele>
        <time>2016-04-06T14:50:04Z</time>
      </trkpt>
      <trkpt lat="43.81902" lon="3.53751">
        <ele>549.93237644271</ele>
        <time>2016-04-06T14:50:36Z</time>
      </trkpt>
      <trkpt lat="43.81885" lon="3.53727">
        <ele>548.32739971815</ele>
        <time>2016-04-06T14:50:53Z</time>
      </trkpt>
      <trkpt lat="43.81875" lon="3.53718">
        <ele>546.81078186279</ele>
        <time>2016-04-06T14:50:53Z</time>
      </trkpt>
      <trkpt lat="43.81859" lon="3.537">
        <ele>545.19221590638</ele>
        <time>2016-04-06T14:51:12Z</time>
      </trkpt>
      <trkpt lat="43.81857" lon="3.53698">
        <ele>545.19221590638</ele>
        <time>2016-04-06T14:51:12Z</time>
      </trkpt>
      <trkpt lat="43.81856" lon="3.53697">
        <ele>545.19221590638</ele>
        <time>2016-04-06T14:51:16Z</time>
      </trkpt>
      <trkpt lat="43.8185" lon="3.53689">
        <ele>543.52615400408</ele>
        <time>2016-04-06T14:51:18Z</time>
      </trkpt>
      <trkpt lat="43.81841" lon="3.53669">
        <ele>541.74780306325</ele>
        <time>2016-04-06T14:51:33Z</time>
      </trkpt>
      <trkpt lat="43.81786" lon="3.53701">
        <ele>539.88381703691</ele>
        <time>2016-04-06T14:52:59Z</time>
      </trkpt>
      <trkpt lat="43.81792" lon="3.53731">
        <ele>537.87256613184</ele>
        <time>2016-04-06T14:53:13Z</time>
      </trkpt>
      <trkpt lat="43.81798" lon="3.53839">
        <ele>536.52192486195</ele>
        <time>2016-04-06T14:54:43Z</time>
      </trkpt>
      <trkpt lat="43.81801" lon="3.53844">
        <ele>536.52192486195</ele>
        <time>2016-04-06T14:54:48Z</time>
      </trkpt>
      <trkpt lat="43.81803" lon="3.53849">
        <ele>536.52192486195</ele>
        <time>2016-04-06T14:54:53Z</time>
      </trkpt>
      <trkpt lat="43.81805" lon="3.53858">
        <ele>535.80026329703</ele>
        <time>2016-04-06T14:54:58Z</time>
      </trkpt>
      <trkpt lat="43.81808" lon="3.53866">
        <ele>535.80026329703</ele>
        <time>2016-04-06T14:55:03Z</time>
      </trkpt>
      <trkpt lat="43.81811" lon="3.53873">
        <ele>535.53229561889</ele>
        <time>2016-04-06T14:55:08Z</time>
      </trkpt>
      <trkpt lat="43.81814" lon="3.53878">
        <ele>535.53229561889</ele>
        <time>2016-04-06T14:55:13Z</time>
      </trkpt>
      <trkpt lat="43.81819" lon="3.53885">
        <ele>535.33807370377</ele>
        <time>2016-04-06T14:55:18Z</time>
      </trkpt>
      <trkpt lat="43.81824" lon="3.53892">
        <ele>535.33807370377</ele>
        <time>2016-04-06T14:55:23Z</time>
      </trkpt>
      <trkpt lat="43.81829" lon="3.53898">
        <ele>535.47052927488</ele>
        <time>2016-04-06T14:55:28Z</time>
      </trkpt>
      <trkpt lat="43.81833" lon="3.53904">
        <ele>535.47052927488</ele>
        <time>2016-04-06T14:55:33Z</time>
      </trkpt>
      <trkpt lat="43.81844" lon="3.53916">
        <ele>535.45687176143</ele>
        <time>2016-04-06T14:55:57Z</time>
      </trkpt>
      <trkpt lat="43.81855" lon="3.53928">
        <ele>535.40700355978</ele>
        <time>2016-04-06T14:55:57Z</time>
      </trkpt>
      <trkpt lat="43.81861" lon="3.53935">
        <ele>535.40700355978</ele>
        <time>2016-04-06T14:56:09Z</time>
      </trkpt>
      <trkpt lat="43.81873" lon="3.53968">
        <ele>535.451617871</ele>
        <time>2016-04-06T14:56:30Z</time>
      </trkpt>
      <trkpt lat="43.81872" lon="3.53982">
        <ele>535.63943742326</ele>
        <time>2016-04-06T14:56:30Z</time>
      </trkpt>
      <trkpt lat="43.81909" lon="3.54062">
        <ele>536.60602193292</ele>
        <time>2016-04-06T14:57:37Z</time>
      </trkpt>
      <trkpt lat="43.81914" lon="3.54071">
        <ele>536.60602193292</ele>
        <time>2016-04-06T14:57:37Z</time>
      </trkpt>
      <trkpt lat="43.81914" lon="3.54072">
        <ele>537.66985460054</ele>
        <time>2016-04-06T14:57:38Z</time>
      </trkpt>
      <trkpt lat="43.81931" lon="3.54121">
        <ele>539.53943262037</ele>
        <time>2016-04-06T14:58:20Z</time>
      </trkpt>
      <trkpt lat="43.81939" lon="3.54131">
        <ele>541.44225248677</ele>
        <time>2016-04-06T14:58:20Z</time>
      </trkpt>
      <trkpt lat="43.81952" lon="3.54184">
        <ele>543.88743545034</ele>
        <time>2016-04-06T14:58:53Z</time>
      </trkpt>
      <trkpt lat="43.81934" lon="3.54407">
        <ele>547.63345198612</ele>
        <time>2016-04-06T15:01:00Z</time>
      </trkpt>
      <trkpt lat="43.81954" lon="3.54476">
        <ele>550.9584111835</ele>
        <time>2016-04-06T15:01:36Z</time>
      </trkpt>
      <trkpt lat="43.81917" lon="3.54577">
        <ele>553.47872232682</ele>
        <time>2016-04-06T15:02:38Z</time>
      </trkpt>
      <trkpt lat="43.81878" lon="3.54581">
        <ele>554.72605844495</ele>
        <time>2016-04-06T15:03:13Z</time>
      </trkpt>
      <trkpt lat="43.81869" lon="3.54587">
        <ele>555.75454490531</ele>
        <time>2016-04-06T15:03:13Z</time>
      </trkpt>
      <trkpt lat="43.81847" lon="3.546">
        <ele>556.43197166971</ele>
        <time>2016-04-06T15:03:33Z</time>
      </trkpt>
      <trkpt lat="43.81827" lon="3.5462">
        <ele>556.79549258732</ele>
        <time>2016-04-06T15:04:00Z</time>
      </trkpt>
      <trkpt lat="43.81794" lon="3.54625">
        <ele>556.54909945904</ele>
        <time>2016-04-06T15:04:20Z</time>
      </trkpt>
      <trkpt lat="43.81698" lon="3.54631">
        <ele>554.88716314028</ele>
        <time>2016-04-06T15:05:38Z</time>
      </trkpt>
      <trkpt lat="43.81651" lon="3.54638">
        <ele>554.09366571434</ele>
        <time>2016-04-06T15:07:18Z</time>
      </trkpt>
      <trkpt lat="43.8165" lon="3.54641">
        <ele>554.09366571434</ele>
        <time>2016-04-06T15:07:33Z</time>
      </trkpt>
      <trkpt lat="43.81644" lon="3.54643">
        <ele>554.09366571434</ele>
        <time>2016-04-06T15:07:38Z</time>
      </trkpt>
      <trkpt lat="43.81638" lon="3.54645">
        <ele>553.37143917139</ele>
        <time>2016-04-06T15:07:43Z</time>
      </trkpt>
      <trkpt lat="43.8157" lon="3.54758">
        <ele>552.87526225541</ele>
        <time>2016-04-06T15:09:25Z</time>
      </trkpt>
      <trkpt lat="43.81514" lon="3.54761">
        <ele>552.86328465065</ele>
        <time>2016-04-06T15:10:13Z</time>
      </trkpt>
      <trkpt lat="43.81442" lon="3.54785">
        <ele>553.18431193835</ele>
        <time>2016-04-06T15:11:30Z</time>
      </trkpt>
      <trkpt lat="43.81439" lon="3.54792">
        <ele>553.18431193835</ele>
        <time>2016-04-06T15:11:43Z</time>
      </trkpt>
      <trkpt lat="43.81397" lon="3.54792">
        <ele>554.21619567838</ele>
        <time>2016-04-06T15:12:25Z</time>
      </trkpt>
      <trkpt lat="43.81387" lon="3.54794">
        <ele>555.19745219744</ele>
        <time>2016-04-06T15:12:38Z</time>
      </trkpt>
      <trkpt lat="43.81378" lon="3.548">
        <ele>556.12889526902</ele>
        <time>2016-04-06T15:12:41Z</time>
      </trkpt>
      <trkpt lat="43.81349" lon="3.5481">
        <ele>557.06913798347</ele>
        <time>2016-04-06T15:13:14Z</time>
      </trkpt>
      <trkpt lat="43.81341" lon="3.54812">
        <ele>557.06913798347</ele>
        <time>2016-04-06T15:13:14Z</time>
      </trkpt>
      <trkpt lat="43.81289" lon="3.54842">
        <ele>558.70663099019</ele>
        <time>2016-04-06T15:14:00Z</time>
      </trkpt>
      <trkpt lat="43.81285" lon="3.54846">
        <ele>558.70663099019</ele>
        <time>2016-04-06T15:14:03Z</time>
      </trkpt>
      <trkpt lat="43.81234" lon="3.54895">
        <ele>560.79830139113</ele>
        <time>2016-04-06T15:15:11Z</time>
      </trkpt>
      <trkpt lat="43.81191" lon="3.54926">
        <ele>563.75183885988</ele>
        <time>2016-04-06T15:15:41Z</time>
      </trkpt>
      <trkpt lat="43.81189" lon="3.54928">
        <ele>563.75183885988</ele>
        <time>2016-04-06T15:15:43Z</time>
      </trkpt>
      <trkpt lat="43.81188" lon="3.5493">
        <ele>563.75183885988</ele>
        <time>2016-04-06T15:15:50Z</time>
      </trkpt>
      <trkpt lat="43.81161" lon="3.54955">
        <ele>567.07800225962</ele>
        <time>2016-04-06T15:16:20Z</time>
      </trkpt>
      <trkpt lat="43.81157" lon="3.54958">
        <ele>567.07800225962</ele>
        <time>2016-04-06T15:16:21Z</time>
      </trkpt>
      <trkpt lat="43.81145" lon="3.54968">
        <ele>570.36579444694</ele>
        <time>2016-04-06T15:16:41Z</time>
      </trkpt>
      <trkpt lat="43.81135" lon="3.54973">
        <ele>573.45081613997</ele>
        <time>2016-04-06T15:16:41Z</time>
      </trkpt>
      <trkpt lat="43.81101" lon="3.54997">
        <ele>576.90201715022</ele>
        <time>2016-04-06T15:17:19Z</time>
      </trkpt>
      <trkpt lat="43.81091" lon="3.55007">
        <ele>580.22249831431</ele>
        <time>2016-04-06T15:17:19Z</time>
      </trkpt>
      <trkpt lat="43.81064" lon="3.55043">
        <ele>583.99000557612</ele>
        <time>2016-04-06T15:18:00Z</time>
      </trkpt>
      <trkpt lat="43.8106" lon="3.55051">
        <ele>583.99000557612</ele>
        <time>2016-04-06T15:18:00Z</time>
      </trkpt>
      <trkpt lat="43.80957" lon="3.55062">
        <ele>589.94931666412</ele>
        <time>2016-04-06T15:19:38Z</time>
      </trkpt>
      <trkpt lat="43.80952" lon="3.55069">
        <ele>589.94931666412</ele>
        <time>2016-04-06T15:19:39Z</time>
      </trkpt>
      <trkpt lat="43.80927" lon="3.55086">
        <ele>595.90656746166</ele>
        <time>2016-04-06T15:20:03Z</time>
      </trkpt>
      <trkpt lat="43.80917" lon="3.55169">
        <ele>602.63946282495</ele>
        <time>2016-04-06T15:21:12Z</time>
      </trkpt>
      <trkpt lat="43.8096" lon="3.55361">
        <ele>610.67932222134</ele>
        <time>2016-04-06T15:23:35Z</time>
      </trkpt>
      <trkpt lat="43.80995" lon="3.55418">
        <ele>618.41104208671</ele>
        <time>2016-04-06T15:24:26Z</time>
      </trkpt>
      <trkpt lat="43.81028" lon="3.55545">
        <ele>625.91016851337</ele>
        <time>2016-04-06T15:25:51Z</time>
      </trkpt>
      <trkpt lat="43.81033" lon="3.55555">
        <ele>625.91016851337</ele>
        <time>2016-04-06T15:25:51Z</time>
      </trkpt>
      <trkpt lat="43.81051" lon="3.55607">
        <ele>632.82978747917</ele>
        <time>2016-04-06T15:26:35Z</time>
      </trkpt>
      <trkpt lat="43.81052" lon="3.5562">
        <ele>639.12429111437</ele>
        <time>2016-04-06T15:26:35Z</time>
      </trkpt>
      <trkpt lat="43.81059" lon="3.55657">
        <ele>645.40208062996</ele>
        <time>2016-04-06T15:27:02Z</time>
      </trkpt>
      <trkpt lat="43.81029" lon="3.55649">
        <ele>652.12645337673</ele>
        <time>2016-04-06T15:27:38Z</time>
      </trkpt>
      <trkpt lat="43.8101" lon="3.55647">
        <ele>658.73148407384</ele>
        <time>2016-04-06T15:28:07Z</time>
      </trkpt>
      <trkpt lat="43.81003" lon="3.55645">
        <ele>658.73148407384</ele>
        <time>2016-04-06T15:28:07Z</time>
      </trkpt>
      <trkpt lat="43.80998" lon="3.55639">
        <ele>665.63031727152</ele>
        <time>2016-04-06T15:28:49Z</time>
      </trkpt>
      <trkpt lat="43.80998" lon="3.55639">
        <ele>665.63031727152</ele>
        <time>2016-04-06T15:29:00Z</time>
      </trkpt>
      <trkpt lat="43.8099" lon="3.55641">
        <ele>671.77867017017</ele>
        <time>2016-04-06T15:29:38Z</time>
      </trkpt>
      <trkpt lat="43.80924" lon="3.55697">
        <ele>677.72469627261</ele>
        <time>2016-04-06T15:30:28Z</time>
      </trkpt>
      <trkpt lat="43.80923" lon="3.55697">
        <ele>677.72469627261</ele>
        <time>2016-04-06T15:30:33Z</time>
      </trkpt>
      <trkpt lat="43.80921" lon="3.55699">
        <ele>677.72469627261</ele>
        <time>2016-04-06T15:30:38Z</time>
      </trkpt>
      <trkpt lat="43.80912" lon="3.55723">
        <ele>682.95411191169</ele>
        <time>2016-04-06T15:31:03Z</time>
      </trkpt>
      <trkpt lat="43.80918" lon="3.5575">
        <ele>687.35314709913</ele>
        <time>2016-04-06T15:31:35Z</time>
      </trkpt>
      <trkpt lat="43.8092" lon="3.55755">
        <ele>687.35314709913</ele>
        <time>2016-04-06T15:31:36Z</time>
      </trkpt>
      <trkpt lat="43.80921" lon="3.55759">
        <ele>687.35314709913</ele>
        <time>2016-04-06T15:31:38Z</time>
      </trkpt>
      <trkpt lat="43.80897" lon="3.55911">
        <ele>691.13619871162</ele>
        <time>2016-04-06T15:33:13Z</time>
      </trkpt>
      <trkpt lat="43.80872" lon="3.55928">
        <ele>694.24466043002</ele>
        <time>2016-04-06T15:33:38Z</time>
      </trkpt>
      <trkpt lat="43.80867" lon="3.55932">
        <ele>694.24466043002</ele>
        <time>2016-04-06T15:33:41Z</time>
      </trkpt>
      <trkpt lat="43.80744" lon="3.55993">
        <ele>695.34392725237</ele>
        <time>2016-04-06T15:35:36Z</time>
      </trkpt>
      <trkpt lat="43.80743" lon="3.55994">
        <ele>695.34392725237</ele>
        <time>2016-04-06T15:35:38Z</time>
      </trkpt>
      <trkpt lat="43.80707" lon="3.5603">
        <ele>695.40833102883</ele>
        <time>2016-04-06T15:36:16Z</time>
      </trkpt>
      <trkpt lat="43.80705" lon="3.56035">
        <ele>695.40833102883</ele>
        <time>2016-04-06T15:36:24Z</time>
      </trkpt>
      <trkpt lat="43.80689" lon="3.56057">
        <ele>695.08445334379</ele>
        <time>2016-04-06T15:36:45Z</time>
      </trkpt>
      <trkpt lat="43.80661" lon="3.56063">
        <ele>694.3386529892</ele>
        <time>2016-04-06T15:37:13Z</time>
      </trkpt>
      <trkpt lat="43.80645" lon="3.56076">
        <ele>693.41497967931</ele>
        <time>2016-04-06T15:37:29Z</time>
      </trkpt>
      <trkpt lat="43.80635" lon="3.56099">
        <ele>692.17995078779</ele>
        <time>2016-04-06T15:37:54Z</time>
      </trkpt>
      <trkpt lat="43.80635" lon="3.561">
        <ele>692.17995078779</ele>
        <time>2016-04-06T15:38:16Z</time>
      </trkpt>
      <trkpt lat="43.80603" lon="3.56194">
        <ele>690.55412037952</ele>
        <time>2016-04-06T15:39:38Z</time>
      </trkpt>
      <trkpt lat="43.80596" lon="3.56215">
        <ele>688.85415059439</ele>
        <time>2016-04-06T15:39:59Z</time>
      </trkpt>
      <trkpt lat="43.80594" lon="3.56236">
        <ele>687.17192264209</ele>
        <time>2016-04-06T15:40:17Z</time>
      </trkpt>
      <trkpt lat="43.80572" lon="3.56246">
        <ele>685.62132456196</ele>
        <time>2016-04-06T15:40:50Z</time>
      </trkpt>
      <trkpt lat="43.80552" lon="3.56238">
        <ele>684.10569567751</ele>
        <time>2016-04-06T15:41:25Z</time>
      </trkpt>
      <trkpt lat="43.8057" lon="3.56244">
        <ele>681.52650217821</ele>
        <time>2016-04-06T15:42:13Z</time>
      </trkpt>
      <trkpt lat="43.80576" lon="3.56246">
        <ele>681.52650217821</ele>
        <time>2016-04-06T15:42:20Z</time>
      </trkpt>
      <trkpt lat="43.80591" lon="3.56245">
        <ele>678.72779010587</ele>
        <time>2016-04-06T15:42:49Z</time>
      </trkpt>
      <trkpt lat="43.80597" lon="3.56247">
        <ele>678.72779010587</ele>
        <time>2016-04-06T15:42:49Z</time>
      </trkpt>
      <trkpt lat="43.80613" lon="3.56271">
        <ele>675.81472317278</ele>
        <time>2016-04-06T15:43:31Z</time>
      </trkpt>
      <trkpt lat="43.80626" lon="3.56273">
        <ele>672.79838480391</ele>
        <time>2016-04-06T15:43:45Z</time>
      </trkpt>
      <trkpt lat="43.8064" lon="3.56283">
        <ele>669.73232267046</ele>
        <time>2016-04-06T15:44:00Z</time>
      </trkpt>
      <trkpt lat="43.80646" lon="3.56285">
        <ele>669.73232267046</ele>
        <time>2016-04-06T15:44:02Z</time>
      </trkpt>
      <trkpt lat="43.80656" lon="3.56294">
        <ele>666.69483514315</ele>
        <time>2016-04-06T15:44:38Z</time>
      </trkpt>
      <trkpt lat="43.80664" lon="3.5629">
        <ele>666.69483514315</ele>
        <time>2016-04-06T15:45:15Z</time>
      </trkpt>
      <trkpt lat="43.80686" lon="3.56308">
        <ele>663.19604698776</ele>
        <time>2016-04-06T15:46:00Z</time>
      </trkpt>
      <trkpt lat="43.80695" lon="3.5628">
        <ele>659.66210468676</ele>
        <time>2016-04-06T15:46:14Z</time>
      </trkpt>
      <trkpt lat="43.80712" lon="3.56266">
        <ele>656.02643041183</ele>
        <time>2016-04-06T15:46:39Z</time>
      </trkpt>
      <trkpt lat="43.80733" lon="3.56261">
        <ele>652.45781346598</ele>
        <time>2016-04-06T15:47:07Z</time>
      </trkpt>
      <trkpt lat="43.80768" lon="3.56276">
        <ele>648.93911370104</ele>
        <time>2016-04-06T15:47:31Z</time>
      </trkpt>
      <trkpt lat="43.80771" lon="3.56277">
        <ele>648.93911370104</ele>
        <time>2016-04-06T15:47:33Z</time>
      </trkpt>
      <trkpt lat="43.80784" lon="3.56286">
        <ele>645.64122714775</ele>
        <time>2016-04-06T15:47:48Z</time>
      </trkpt>
      <trkpt lat="43.80838" lon="3.5631">
        <ele>641.77029883443</ele>
        <time>2016-04-06T15:48:44Z</time>
      </trkpt>
      <trkpt lat="43.8084" lon="3.56314">
        <ele>641.77029883443</ele>
        <time>2016-04-06T15:48:49Z</time>
      </trkpt>
      <trkpt lat="43.80865" lon="3.56329">
        <ele>638.14834051083</ele>
        <time>2016-04-06T15:49:03Z</time>
      </trkpt>
      <trkpt lat="43.80873" lon="3.56338">
        <ele>634.7432008793</ele>
        <time>2016-04-06T15:49:24Z</time>
      </trkpt>
      <trkpt lat="43.80887" lon="3.56394">
        <ele>631.97075031566</ele>
        <time>2016-04-06T15:50:09Z</time>
      </trkpt>
      <trkpt lat="43.80915" lon="3.56462">
        <ele>630.34375547741</ele>
        <time>2016-04-06T15:50:48Z</time>
      </trkpt>
      <trkpt lat="43.80917" lon="3.56469">
        <ele>630.34375547741</ele>
        <time>2016-04-06T15:50:53Z</time>
      </trkpt>
      <trkpt lat="43.80918" lon="3.56469">
        <ele>630.34375547741</ele>
        <time>2016-04-06T15:50:58Z</time>
      </trkpt>
      <trkpt lat="43.80923" lon="3.56479">
        <ele>630.03099417694</ele>
        <time>2016-04-06T15:51:19Z</time>
      </trkpt>
      <trkpt lat="43.80923" lon="3.5648">
        <ele>630.03099417694</ele>
        <time>2016-04-06T15:51:19Z</time>
      </trkpt>
      <trkpt lat="43.80924" lon="3.56481">
        <ele>630.03099417694</ele>
        <time>2016-04-06T15:51:23Z</time>
      </trkpt>
      <trkpt lat="43.80926" lon="3.56495">
        <ele>629.84446247434</ele>
        <time>2016-04-06T15:51:34Z</time>
      </trkpt>
      <trkpt lat="43.8093" lon="3.56608">
        <ele>629.74905067356</ele>
        <time>2016-04-06T15:52:57Z</time>
      </trkpt>
      <trkpt lat="43.80931" lon="3.56621">
        <ele>629.68272898866</ele>
        <time>2016-04-06T15:52:57Z</time>
      </trkpt>
      <trkpt lat="43.80932" lon="3.56646">
        <ele>629.64519059843</ele>
        <time>2016-04-06T15:53:10Z</time>
      </trkpt>
      <trkpt lat="43.8095" lon="3.56682">
        <ele>629.4627648249</ele>
        <time>2016-04-06T15:53:44Z</time>
      </trkpt>
      <trkpt lat="43.80964" lon="3.56699">
        <ele>629.29164115933</ele>
        <time>2016-04-06T15:54:04Z</time>
      </trkpt>
      <trkpt lat="43.80971" lon="3.56713">
        <ele>629.1464779199</ele>
        <time>2016-04-06T15:54:19Z</time>
      </trkpt>
      <trkpt lat="43.80969" lon="3.56729">
        <ele>629.0981244364</ele>
        <time>2016-04-06T15:54:57Z</time>
      </trkpt>
      <trkpt lat="43.80956" lon="3.56814">
        <ele>628.82257077089</ele>
        <time>2016-04-06T15:57:44Z</time>
      </trkpt>
      <trkpt lat="43.80956" lon="3.56823">
        <ele>628.82257077089</ele>
        <time>2016-04-06T15:57:51Z</time>
      </trkpt>
      <trkpt lat="43.80955" lon="3.56831">
        <ele>628.52437206063</ele>
        <time>2016-04-06T15:57:58Z</time>
      </trkpt>
      <trkpt lat="43.80954" lon="3.5684">
        <ele>628.52437206063</ele>
        <time>2016-04-06T15:58:03Z</time>
      </trkpt>
      <trkpt lat="43.80956" lon="3.56851">
        <ele>628.23435428488</ele>
        <time>2016-04-06T15:58:13Z</time>
      </trkpt>
      <trkpt lat="43.80959" lon="3.56856">
        <ele>628.23435428488</ele>
        <time>2016-04-06T15:58:18Z</time>
      </trkpt>
      <trkpt lat="43.80963" lon="3.56878">
        <ele>627.93759673062</ele>
        <time>2016-04-06T15:58:33Z</time>
      </trkpt>
      <trkpt lat="43.80965" lon="3.56883">
        <ele>627.93759673062</ele>
        <time>2016-04-06T15:58:38Z</time>
      </trkpt>
      <trkpt lat="43.80965" lon="3.56918">
        <ele>627.24539493851</ele>
        <time>2016-04-06T15:59:31Z</time>
      </trkpt>
      <trkpt lat="43.80969" lon="3.56922">
        <ele>627.24539493851</ele>
        <time>2016-04-06T15:59:32Z</time>
      </trkpt>
      <trkpt lat="43.80974" lon="3.56947">
        <ele>626.12996813155</ele>
        <time>2016-04-06T15:59:58Z</time>
      </trkpt>
      <trkpt lat="43.80973" lon="3.56958">
        <ele>626.12996813155</ele>
        <time>2016-04-06T16:00:00Z</time>
      </trkpt>
      <trkpt lat="43.80978" lon="3.56974">
        <ele>624.86921388202</ele>
        <time>2016-04-06T16:00:08Z</time>
      </trkpt>
      <trkpt lat="43.80981" lon="3.56981">
        <ele>624.86921388202</ele>
        <time>2016-04-06T16:00:16Z</time>
      </trkpt>
      <trkpt lat="43.80985" lon="3.56986">
        <ele>623.64879458088</ele>
        <time>2016-04-06T16:00:23Z</time>
      </trkpt>
      <trkpt lat="43.8099" lon="3.56999">
        <ele>622.36664457313</ele>
        <time>2016-04-06T16:00:38Z</time>
      </trkpt>
      <trkpt lat="43.80996" lon="3.57016">
        <ele>621.10114454454</ele>
        <time>2016-04-06T16:01:00Z</time>
      </trkpt>
      <trkpt lat="43.80997" lon="3.57077">
        <ele>619.39150749733</ele>
        <time>2016-04-06T16:01:45Z</time>
      </trkpt>
      <trkpt lat="43.80998" lon="3.57088">
        <ele>619.39150749733</ele>
        <time>2016-04-06T16:01:45Z</time>
      </trkpt>
      <trkpt lat="43.81003" lon="3.57096">
        <ele>617.86390690555</ele>
        <time>2016-04-06T16:02:00Z</time>
      </trkpt>
      <trkpt lat="43.81001" lon="3.57109">
        <ele>616.0170318406</ele>
        <time>2016-04-06T16:02:27Z</time>
      </trkpt>
      <trkpt lat="43.81002" lon="3.57153">
        <ele>613.27186453133</ele>
        <time>2016-04-06T16:02:54Z</time>
      </trkpt>
      <trkpt lat="43.80994" lon="3.57166">
        <ele>610.34806898941</ele>
        <time>2016-04-06T16:03:35Z</time>
      </trkpt>
      <trkpt lat="43.80994" lon="3.5722">
        <ele>607.00490139241</ele>
        <time>2016-04-06T16:04:24Z</time>
      </trkpt>
      <trkpt lat="43.80986" lon="3.57214">
        <ele>603.81294310888</ele>
        <time>2016-04-06T16:04:41Z</time>
      </trkpt>
      <trkpt lat="43.80978" lon="3.57218">
        <ele>600.10415908774</ele>
        <time>2016-04-06T16:05:41Z</time>
      </trkpt>
      <trkpt lat="43.8097" lon="3.57216">
        <ele>600.10415908774</ele>
        <time>2016-04-06T16:05:41Z</time>
      </trkpt>
      <trkpt lat="43.80934" lon="3.57246">
        <ele>596.26965273653</ele>
        <time>2016-04-06T16:06:33Z</time>
      </trkpt>
      <trkpt lat="43.80928" lon="3.57268">
        <ele>592.70080116926</ele>
        <time>2016-04-06T16:06:53Z</time>
      </trkpt>
      <trkpt lat="43.80908" lon="3.57304">
        <ele>589.16845164666</ele>
        <time>2016-04-06T16:07:23Z</time>
      </trkpt>
      <trkpt lat="43.80885" lon="3.5733">
        <ele>585.61851945712</ele>
        <time>2016-04-06T16:07:58Z</time>
      </trkpt>
      <trkpt lat="43.80877" lon="3.57349">
        <ele>581.75576213987</ele>
        <time>2016-04-06T16:08:14Z</time>
      </trkpt>
      <trkpt lat="43.8086" lon="3.57361">
        <ele>578.14315237906</ele>
        <time>2016-04-06T16:08:44Z</time>
      </trkpt>
      <trkpt lat="43.80855" lon="3.57366">
        <ele>578.14315237906</ele>
        <time>2016-04-06T16:08:50Z</time>
      </trkpt>
      <trkpt lat="43.80769" lon="3.57428">
        <ele>574.03322705416</ele>
        <time>2016-04-06T16:10:25Z</time>
      </trkpt>
      <trkpt lat="43.80759" lon="3.57434">
        <ele>570.36307867489</ele>
        <time>2016-04-06T16:10:25Z</time>
      </trkpt>
      <trkpt lat="43.80736" lon="3.57441">
        <ele>567.14926565347</ele>
        <time>2016-04-06T16:11:29Z</time>
      </trkpt>
      <trkpt lat="43.80681" lon="3.5746">
        <ele>563.2527524047</ele>
        <time>2016-04-06T16:12:00Z</time>
      </trkpt>
      <trkpt lat="43.80611" lon="3.57481">
        <ele>559.04658238008</ele>
        <time>2016-04-06T16:12:58Z</time>
      </trkpt>
      <trkpt lat="43.80557" lon="3.57456">
        <ele>554.7329422296</ele>
        <time>2016-04-06T16:13:50Z</time>
      </trkpt>
      <trkpt lat="43.80478" lon="3.57443">
        <ele>549.96604272811</ele>
        <time>2016-04-06T16:15:00Z</time>
      </trkpt>
      <trkpt lat="43.80475" lon="3.57444">
        <ele>549.96604272811</ele>
        <time>2016-04-06T16:15:03Z</time>
      </trkpt>
      <trkpt lat="43.80413" lon="3.57454">
        <ele>545.76678466595</ele>
        <time>2016-04-06T16:16:52Z</time>
      </trkpt>
      <trkpt lat="43.80254" lon="3.57401">
        <ele>538.66945489496</ele>
        <time>2016-04-06T16:18:43Z</time>
      </trkpt>
      <trkpt lat="43.80251" lon="3.57399">
        <ele>538.66945489496</ele>
        <time>2016-04-06T16:18:43Z</time>
      </trkpt>
      <trkpt lat="43.80227" lon="3.57398">
        <ele>531.66760402209</ele>
        <time>2016-04-06T16:19:25Z</time>
      </trkpt>
      <trkpt lat="43.80221" lon="3.57394">
        <ele>531.66760402209</ele>
        <time>2016-04-06T16:19:25Z</time>
      </trkpt>
      <trkpt lat="43.8018" lon="3.57337">
        <ele>520.90524020677</ele>
        <time>2016-04-06T16:20:29Z</time>
      </trkpt>
      <trkpt lat="43.80192" lon="3.57332">
        <ele>510.02545313894</ele>
        <time>2016-04-06T16:20:53Z</time>
      </trkpt>
      <trkpt lat="43.80223" lon="3.57344">
        <ele>499.79530950406</ele>
        <time>2016-04-06T16:21:20Z</time>
      </trkpt>
      <trkpt lat="43.8018" lon="3.57383">
        <ele>489.68398933186</ele>
        <time>2016-04-06T16:23:11Z</time>
      </trkpt>
      <trkpt lat="43.80168" lon="3.57375">
        <ele>480.52475887374</ele>
        <time>2016-04-06T16:23:11Z</time>
      </trkpt>
      <trkpt lat="43.80176" lon="3.5738">
        <ele>472.39484322627</ele>
        <time>2016-04-06T16:24:00Z</time>
      </trkpt>
      <trkpt lat="43.80128" lon="3.57399">
        <ele>463.17196940388</ele>
        <time>2016-04-06T16:24:50Z</time>
      </trkpt>
      <trkpt lat="43.80127" lon="3.57398">
        <ele>463.17196940388</ele>
        <time>2016-04-06T16:24:53Z</time>
      </trkpt>
      <trkpt lat="43.80128" lon="3.57411">
        <ele>452.89551017646</ele>
        <time>2016-04-06T16:25:38Z</time>
      </trkpt>
      <trkpt lat="43.80128" lon="3.5742">
        <ele>452.89551017646</ele>
        <time>2016-04-06T16:26:23Z</time>
      </trkpt>
      <trkpt lat="43.8012" lon="3.57405">
        <ele>441.63323965858</ele>
        <time>2016-04-06T16:26:50Z</time>
      </trkpt>
      <trkpt lat="43.80115" lon="3.574">
        <ele>441.63323965858</ele>
        <time>2016-04-06T16:26:50Z</time>
      </trkpt>
      <trkpt lat="43.80099" lon="3.57435">
        <ele>431.25160651374</ele>
        <time>2016-04-06T16:28:00Z</time>
      </trkpt>
      <trkpt lat="43.80098" lon="3.57418">
        <ele>421.63233801641</ele>
        <time>2016-04-06T16:28:58Z</time>
      </trkpt>
      <trkpt lat="43.80078" lon="3.57423">
        <ele>412.85052167824</ele>
        <time>2016-04-06T16:30:00Z</time>
      </trkpt>
      <trkpt lat="43.8007" lon="3.57419">
        <ele>412.85052167824</ele>
        <time>2016-04-06T16:30:00Z</time>
      </trkpt>
      <trkpt lat="43.80055" lon="3.5743">
        <ele>403.38761366302</ele>
        <time>2016-04-06T16:31:58Z</time>
      </trkpt>
      <trkpt lat="43.80094" lon="3.57506">
        <ele>393.26468463072</ele>
        <time>2016-04-06T16:33:08Z</time>
      </trkpt>
      <trkpt lat="43.80097" lon="3.57507">
        <ele>393.26468463072</ele>
        <time>2016-04-06T16:33:08Z</time>
      </trkpt>
      <trkpt lat="43.80105" lon="3.57532">
        <ele>383.42487057703</ele>
        <time>2016-04-06T16:33:52Z</time>
      </trkpt>
      <trkpt lat="43.80122" lon="3.57697">
        <ele>369.14915905227</ele>
        <time>2016-04-06T16:36:16Z</time>
      </trkpt>
      <trkpt lat="43.80115" lon="3.57735">
        <ele>355.06960172917</ele>
        <time>2016-04-06T16:36:49Z</time>
      </trkpt>
      <trkpt lat="43.80125" lon="3.57764">
        <ele>342.07581781479</ele>
        <time>2016-04-06T16:37:13Z</time>
      </trkpt>
      <trkpt lat="43.80132" lon="3.5777">
        <ele>342.07581781479</ele>
        <time>2016-04-06T16:37:30Z</time>
      </trkpt>
      <trkpt lat="43.80134" lon="3.57776">
        <ele>330.36874131019</ele>
        <time>2016-04-06T16:37:30Z</time>
      </trkpt>
      <trkpt lat="43.80148" lon="3.57838">
        <ele>318.86213000158</ele>
        <time>2016-04-06T16:38:20Z</time>
      </trkpt>
      <trkpt lat="43.80163" lon="3.57852">
        <ele>307.31212636042</ele>
        <time>2016-04-06T16:39:00Z</time>
      </trkpt>
      <trkpt lat="43.80165" lon="3.5789">
        <ele>297.14955021748</ele>
        <time>2016-04-06T16:39:00Z</time>
      </trkpt>
      <trkpt lat="43.80195" lon="3.5793">
        <ele>286.87101284213</ele>
        <time>2016-04-06T16:40:00Z</time>
      </trkpt>
      <trkpt lat="43.80203" lon="3.57935">
        <ele>286.87101284213</ele>
        <time>2016-04-06T16:40:01Z</time>
      </trkpt>
      <trkpt lat="43.80216" lon="3.57968">
        <ele>276.95671466415</ele>
        <time>2016-04-06T16:40:21Z</time>
      </trkpt>
      <trkpt lat="43.80221" lon="3.57982">
        <ele>268.16700123334</ele>
        <time>2016-04-06T16:40:28Z</time>
      </trkpt>
      <trkpt lat="43.8024" lon="3.57994">
        <ele>259.76151676399</ele>
        <time>2016-04-06T16:40:48Z</time>
      </trkpt>
      <trkpt lat="43.80281" lon="3.58053">
        <ele>250.53385726187</ele>
        <time>2016-04-06T16:41:41Z</time>
      </trkpt>
      <trkpt lat="43.80286" lon="3.58062">
        <ele>250.53385726187</ele>
        <time>2016-04-06T16:41:41Z</time>
      </trkpt>
      <trkpt lat="43.80298" lon="3.58083">
        <ele>241.25587323991</ele>
        <time>2016-04-06T16:42:35Z</time>
      </trkpt>
      <trkpt lat="43.80367" lon="3.58147">
        <ele>232.49824291582</ele>
        <time>2016-04-06T16:43:33Z</time>
      </trkpt>
      <trkpt lat="43.80384" lon="3.58152">
        <ele>225.00395564449</ele>
        <time>2016-04-06T16:43:57Z</time>
      </trkpt>
      <trkpt lat="43.80407" lon="3.58121">
        <ele>219.44302448696</ele>
        <time>2016-04-06T16:44:31Z</time>
      </trkpt>
      <trkpt lat="43.80382" lon="3.58104">
        <ele>214.70108358979</ele>
        <time>2016-04-06T16:44:47Z</time>
      </trkpt>
      <trkpt lat="43.80372" lon="3.58077">
        <ele>211.02556456167</ele>
        <time>2016-04-06T16:45:04Z</time>
      </trkpt>
      <trkpt lat="43.8041" lon="3.58062">
        <ele>207.82099688933</ele>
        <time>2016-04-06T16:45:50Z</time>
      </trkpt>
      <trkpt lat="43.80568" lon="3.58288">
        <ele>205.08171264542</ele>
        <time>2016-04-06T16:48:45Z</time>
      </trkpt>
      <trkpt lat="43.80568" lon="3.58293">
        <ele>205.08171264542</ele>
        <time>2016-04-06T16:48:48Z</time>
      </trkpt>
      <trkpt lat="43.80563" lon="3.58395">
        <ele>201.27339330123</ele>
        <time>2016-04-06T16:50:00Z</time>
      </trkpt>
      <trkpt lat="43.80566" lon="3.58404">
        <ele>201.27339330123</ele>
        <time>2016-04-06T16:50:00Z</time>
      </trkpt>
      <trkpt lat="43.80577" lon="3.58437">
        <ele>197.71541496535</ele>
        <time>2016-04-06T16:50:25Z</time>
      </trkpt>
      <trkpt lat="43.8058" lon="3.58454">
        <ele>195.00978019746</ele>
        <time>2016-04-06T16:50:25Z</time>
      </trkpt>
      <trkpt lat="43.80595" lon="3.58479">
        <ele>192.93365609186</ele>
        <time>2016-04-06T16:50:48Z</time>
      </trkpt>
      <trkpt lat="43.80602" lon="3.58487">
        <ele>191.55265316026</ele>
        <time>2016-04-06T16:50:51Z</time>
      </trkpt>
      <trkpt lat="43.80607" lon="3.58496">
        <ele>191.55265316026</ele>
        <time>2016-04-06T16:50:59Z</time>
      </trkpt>
      <trkpt lat="43.80625" lon="3.58513">
        <ele>190.94010429572</ele>
        <time>2016-04-06T16:51:20Z</time>
      </trkpt>
      <trkpt lat="43.80663" lon="3.58551">
        <ele>190.94576764649</ele>
        <time>2016-04-06T16:52:00Z</time>
      </trkpt>
      <trkpt lat="43.8071" lon="3.58587">
        <ele>190.91009212416</ele>
        <time>2016-04-06T16:52:43Z</time>
      </trkpt>
      <trkpt lat="43.80715" lon="3.5859">
        <ele>190.91009212416</ele>
        <time>2016-04-06T16:52:53Z</time>
      </trkpt>
      <trkpt lat="43.80751" lon="3.58613">
        <ele>191.25993529864</ele>
        <time>2016-04-06T16:53:44Z</time>
      </trkpt>
      <trkpt lat="43.80825" lon="3.58655">
        <ele>191.49652056738</ele>
        <time>2016-04-06T16:54:31Z</time>
      </trkpt>
      <trkpt lat="43.80934" lon="3.58635">
        <ele>191.01425753895</ele>
        <time>2016-04-06T16:56:19Z</time>
      </trkpt>
      <trkpt lat="43.80936" lon="3.58628">
        <ele>191.01425753895</ele>
        <time>2016-04-06T16:56:19Z</time>
      </trkpt>
      <trkpt lat="43.80961" lon="3.58617">
        <ele>190.42174029065</ele>
        <time>2016-04-06T16:56:43Z</time>
      </trkpt>
      <trkpt lat="43.80985" lon="3.58608">
        <ele>189.83683742633</ele>
        <time>2016-04-06T16:57:15Z</time>
      </trkpt>
      <trkpt lat="43.80992" lon="3.58604">
        <ele>189.83683742633</ele>
        <time>2016-04-06T16:57:16Z</time>
      </trkpt>
      <trkpt lat="43.81038" lon="3.58627">
        <ele>187.38044698934</ele>
        <time>2016-04-06T16:58:13Z</time>
      </trkpt>
      <trkpt lat="43.81061" lon="3.58613">
        <ele>185.10734185792</ele>
        <time>2016-04-06T16:58:53Z</time>
      </trkpt>
      <trkpt lat="43.81099" lon="3.58614">
        <ele>182.91816986158</ele>
        <time>2016-04-06T16:59:43Z</time>
      </trkpt>
      <trkpt lat="43.81102" lon="3.5862">
        <ele>182.91816986158</ele>
        <time>2016-04-06T16:59:44Z</time>
      </trkpt>
      <trkpt lat="43.81137" lon="3.58641">
        <ele>181.05258240599</ele>
        <time>2016-04-06T17:00:41Z</time>
      </trkpt>
      <trkpt lat="43.81139" lon="3.58642">
        <ele>181.05258240599</ele>
        <time>2016-04-06T17:00:43Z</time>
      </trkpt>
      <trkpt lat="43.81249" lon="3.58732">
        <ele>181.14450091723</ele>
        <time>2016-04-06T17:04:00Z</time>
      </trkpt>
      <trkpt lat="43.81211" lon="3.5877">
        <ele>181.6332639643</ele>
        <time>2016-04-06T17:04:43Z</time>
      </trkpt>
      <trkpt lat="43.81187" lon="3.58764">
        <ele>182.1963259278</ele>
        <time>2016-04-06T17:05:14Z</time>
      </trkpt>
      <trkpt lat="43.81206" lon="3.58845">
        <ele>182.14605835999</ele>
        <time>2016-04-06T17:06:03Z</time>
      </trkpt>
      <trkpt lat="43.81224" lon="3.58886">
        <ele>181.55375673564</ele>
        <time>2016-04-06T17:06:41Z</time>
      </trkpt>
      <trkpt lat="43.8124" lon="3.58905">
        <ele>180.93430027987</ele>
        <time>2016-04-06T17:06:57Z</time>
      </trkpt>
      <trkpt lat="43.81258" lon="3.59019">
        <ele>178.64694583135</ele>
        <time>2016-04-06T17:08:09Z</time>
      </trkpt>
      <trkpt lat="43.81258" lon="3.59023">
        <ele>178.64694583135</ele>
        <time>2016-04-06T17:08:09Z</time>
      </trkpt>
      <trkpt lat="43.81259" lon="3.5909">
        <ele>176.86595859084</ele>
        <time>2016-04-06T17:08:37Z</time>
      </trkpt>
      <trkpt lat="43.81259" lon="3.59091">
        <ele>176.86595859084</ele>
        <time>2016-04-06T17:08:38Z</time>
      </trkpt>
      <trkpt lat="43.8126" lon="3.59095">
        <ele>176.86595859084</ele>
        <time>2016-04-06T17:08:43Z</time>
      </trkpt>
      <trkpt lat="43.81259" lon="3.59096">
        <ele>176.86595859084</ele>
        <time>2016-04-06T17:08:48Z</time>
      </trkpt>
    </trkseg>
  </trk>
</gpx>